Flight Track Log - Related Links

Times and Time Zones

All times are in EDT time to prevent confusion due to time zone crossing. See the UAL139 flight status page for this flight to view local times or setup timezone preferences in your user account.

Time Position Orientation Groundspeed Altitude Reporting Facility
EDT Latitude Longitude Course Direction KTS MPH feet Rate Location/Type
Thu 03:12:34 PM 39.8640 -104.6960 360° North 134 154 5,000  Level FlightAware ADS-B
Thu 03:12:54 PM 39.8805 -104.6960 360° North 191 220 5,000 514 Level FlightAware ADS-B
Thu 03:13:09 PM 39.8953 -104.6960 360° North 218 251 5,300 1,714 Climbing FlightAware ADS-B
Thu 03:13:22 PM 39.9076 -104.6960 360° North 218 251 5,800 2,400 Climbing FlightAware ADS-B
Thu 03:13:29 PM 39.9147 -104.6960 360° North 219 252 6,100 2,182 Climbing FlightAware ADS-B
Thu 03:13:33 PM 39.9190 -104.6960 360° North 221 254 6,200 1,714 Climbing FlightAware ADS-B
Thu 03:13:36 PM 39.9221 -104.6970 346° North 223 257 6,300 1,500 Climbing FlightAware ADS-B
Thu 03:13:41 PM 39.9272 -104.6980 351° North 229 264 6,400 800 Climbing FlightAware ADS-B
Thu 03:13:51 PM 39.9377 -104.7010 348° North 241 277 6,500 720 Climbing FlightAware ADS-B
Thu 03:14:06 PM 39.9550 -104.7060 348° North 260 299 6,700 1,400 Climbing FlightAware ADS-B
Thu 03:14:21 PM 39.9732 -104.7120 346° North 271 312 7,200 1,800 Climbing FlightAware ADS-B
Thu 03:14:36 PM 39.9921 -104.7180 346° North 284 327 7,600 1,448 Climbing FlightAware ADS-B
Thu 03:14:50 PM 40.0106 -104.7230 348° North 297 342 7,900 1,862 Climbing FlightAware ADS-B
Thu 03:15:05 PM 40.0313 -104.7290 347° North 302 348 8,500 2,786 Climbing FlightAware ADS-B
Thu 03:15:18 PM 40.0490 -104.7330 350° North 297 342 9,200 3,200 Climbing FlightAware ADS-B
Thu 03:15:35 PM 40.0710 -104.7420 343° North 293 337 10,100 1,915 Climbing FlightAware ADS-B
Thu 03:16:05 PM 40.1110 -104.7610 340° North 321 369 10,700 1,100 Climbing FlightAware ADS-B
Thu 03:16:35 PM 40.1553 -104.7820 340° North 352 405 11,200 1,574 Climbing FlightAware ADS-B
Thu 03:17:06 PM 40.2030 -104.8050 340° North 362 417 12,300 2,129 Climbing FlightAware ADS-B
Thu 03:17:37 PM 40.2522 -104.8280 340° North 367 422 13,400 2,226 Climbing FlightAware ADS-B
Thu 03:18:08 PM 40.3027 -104.8510 341° North 371 427 14,600 2,129 Climbing FlightAware ADS-B
Thu 03:18:39 PM 40.3534 -104.8750 340° North 383 441 15,600 1,475 Climbing FlightAware ADS-B
Thu 03:19:09 PM 40.4052 -104.8990 341° North 407 468 16,100 1,000 Climbing FlightAware ADS-B
Thu 03:19:39 PM 40.4603 -104.9250 340° North 427 491 16,600 1,300 Climbing FlightAware ADS-B
Thu 03:20:09 PM 40.5168 -104.9510 341° North 436 502 17,400 1,742 Climbing FlightAware ADS-B
Thu 03:20:41 PM 40.5773 -104.9800 340° North 443 510 18,400 1,742 Climbing FlightAware ADS-B
Thu 03:21:11 PM 40.6360 -105.0070 341° North 449 517 19,200 1,600 Climbing FlightAware ADS-B
Thu 03:21:56 PM 40.7250 -105.0490 340° North 459 528 20,400 1,714 Climbing FlightAware ADS-B
Thu 03:22:14 PM 40.7595 -105.0710 334° Northwest 458 527 21,000 1,737 Climbing FlightAware ADS-B
Thu 03:22:34 PM 40.7962 -105.1030 327° Northwest 461 531 21,500 1,500 Climbing FlightAware ADS-B
Thu 03:23:06 PM 40.8450 -105.1590 319° Northwest 462 532 22,300 1,467 Climbing FlightAware ADS-B
Thu 03:23:19 PM 40.8680 -105.1840 321° Northwest 461 531 22,600 1,309 Climbing FlightAware ADS-B
Thu 03:24:01 PM 40.9386 -105.2640 319° Northwest 461 531 23,500 1,333 Climbing FlightAware ADS-B
Thu 03:24:49 PM 41.0180 -105.3540 319° Northwest 478 550 24,600 1,390 Climbing FlightAware ADS-B
Thu 03:25:23 PM 41.0770 -105.4160 322° Northwest 484 557 25,400 1,200 Climbing FlightAware ADS-B
Thu 03:25:59 PM 41.1490 -105.4640 333° Northwest 492 566 26,000 1,043 Climbing FlightAware ADS-B
Thu 03:26:32 PM 41.2190 -105.5040 337° Northwest 499 574 26,600 1,043 Climbing FlightAware ADS-B
Thu 03:27:08 PM 41.2950 -105.5490 336° Northwest 506 582 27,200 986 Climbing FlightAware ADS-B
Thu 03:27:45 PM 41.3750 -105.5970 336° Northwest 510 587 27,800 930 Climbing FlightAware ADS-B
Thu 03:28:19 PM 41.4380 -105.6620 322° Northwest 508 585 28,300 545 Climbing FlightAware ADS-B
Thu 03:29:02 PM 41.4930 -105.7580 307° West 507 583 28,500 1,077 Climbing FlightAware ADS-B
Thu 03:29:37 PM 41.5450 -105.8620 304° West 508 585 29,700 1,859 Climbing FlightAware ADS-B
Thu 03:30:13 PM 41.5920 -105.9540 304° West 503 579 30,700 1,500 Climbing FlightAware ADS-B
Thu 03:30:49 PM 41.6380 -106.0440 304° West 498 573 31,500 1,364 Climbing FlightAware ADS-B
Thu 03:31:19 PM 41.6780 -106.1220 304° West 497 572 32,200 1,371 Climbing FlightAware ADS-B
Thu 03:31:59 PM 41.7290 -106.2220 304° West 493 567 33,100 701 Climbing FlightAware ADS-B
Thu 03:32:36 PM 41.7690 -106.3020 304° West 493 567 33,100  Level FlightAware ADS-B
Thu 03:33:12 PM 41.8080 -106.3790 304° West 493 567 33,100  Level FlightAware ADS-B
Thu 03:33:48 PM 41.8470 -106.4570 304° West 493 567 33,100  Level FlightAware ADS-B
Thu 03:34:24 PM 41.8860 -106.5350 304° West 493 567 33,100  Level FlightAware ADS-B
Thu 03:35:01 PM 41.9260 -106.6150 304° West 493 567 33,100  Level FlightAware ADS-B
Thu 03:35:25 PM 41.9520 -106.6670 304° West 493 567 33,100  Level FlightAware ADS-B
Thu 03:36:01 PM 41.9910 -106.7440 304° West 493 567 33,100  Level FlightAware ADS-B
Thu 03:36:37 PM 42.0300 -106.8220 304° West 493 567 33,100  Level FlightAware ADS-B
Thu 03:37:13 PM 42.0690 -106.9000 304° West 493 567 33,100  Level FlightAware ADS-B
Thu 03:37:49 PM 42.1080 -106.9780 304° West 493 567 33,100  Level FlightAware ADS-B
Thu 03:38:25 PM 42.1470 -107.0560 304° West 493 567 33,100  Level FlightAware ADS-B
Thu 03:39:01 PM 42.1860 -107.1340 304° West 493 567 33,100  Level FlightAware ADS-B
Thu 03:39:37 PM 42.2260 -107.2120 305° West 493 567 33,100  Level FlightAware ADS-B
Thu 03:40:13 PM 42.2650 -107.2910 304° West 493 567 33,100  Level FlightAware ADS-B
Thu 03:40:49 PM 42.3040 -107.3690 304° West 493 567 33,100  Level FlightAware ADS-B
Thu 03:41:25 PM 42.3430 -107.4470 304° West 493 567 33,100 2,260 Level FlightAware ADS-B
Thu 03:42:06 PM 42.4608 -107.6969 304° West 472 543 36,000 2,096 Climbing Denver Center
Thu 03:42:48 PM 42.5181 -107.8169 303° West 475 547 36,000  Level Salt Lake Center
Thu 03:43:50 PM 42.5867 -107.9575 304° West 471 542 36,000  Level Salt Lake Center
Thu 03:44:53 PM 42.6656 -108.1250 303° West 472 543 36,000  Level Salt Lake Center
Thu 03:45:55 PM 42.7350 -108.2692 303° West 475 547 36,000  Level Salt Lake Center
Thu 03:46:57 PM 42.8147 -108.4400 303° West 478 550 36,000  Level Salt Lake Center
Thu 03:47:59 PM 42.8833 -108.5856 303° West 479 551 36,000  Level Salt Lake Center
Thu 03:49:01 PM 42.9636 -108.7578 303° West 481 554 36,000  Level Salt Lake Center
Thu 03:50:03 PM 43.0353 -108.9125 302° West 479 551 36,000  Level Salt Lake Center
Thu 03:51:05 PM 43.1058 -109.0653 302° West 476 548 36,000  Level Salt Lake Center
Thu 03:52:07 PM 43.1764 -109.2194 302° West 478 550 36,000  Level Salt Lake Center
Thu 03:53:09 PM 43.2475 -109.3736 302° West 479 551 36,000  Level Salt Lake Center
Thu 03:55:13 PM 43.3978 -109.7175 301° West 477 549 36,000  Level Salt Lake Center
Thu 03:56:15 PM 43.4611 -109.8642 301° West 473 544 36,000 48 Level Salt Lake Center
Thu 03:57:17 PM 43.5314 -110.0378 299° West 480 552 36,100 435 Climbing Salt Lake Center
Thu 03:58:19 PM 43.5958 -110.1894 300° West 481 554 36,900 774 Climbing Salt Lake Center
Thu 03:59:21 PM 43.6694 -110.3667 300° West 477 549 37,700 532 Climbing Salt Lake Center
Thu 04:00:23 PM 43.7308 -110.5175 299° West 473 544 38,000 145 Climbing Salt Lake Center
Thu 04:01:25 PM 43.8036 -110.6939 300° West 474 545 38,000  Level Salt Lake Center
Thu 04:02:27 PM 43.8647 -110.8469 299° West 473 544 38,000  Level Salt Lake Center
Thu 04:03:29 PM 43.9350 -111.0242 299° West 469 540 38,000  Level Salt Lake Center
Thu 04:04:31 PM 43.9961 -111.1761 299° West 470 541 38,000  Level Salt Lake Center
Thu 04:05:33 PM 44.0569 -111.3278 299° West 469 540 38,000  Level Salt Lake Center
Thu 04:06:35 PM 44.1272 -111.5069 299° West 470 541 38,000  Level Salt Lake Center
Thu 04:07:37 PM 44.1883 -111.6617 299° West 472 543 38,000  Level Salt Lake Center
Thu 04:08:39 PM 44.2589 -111.8431 299° West 474 545 38,000  Level Salt Lake Center
Thu 04:09:41 PM 44.3206 -111.9972 299° West 473 544 38,000  Level Salt Lake Center
Thu 04:10:43 PM 44.3908 -112.1806 298° West 475 547 38,000  Level Salt Lake Center
Thu 04:11:45 PM 44.4514 -112.3375 298° West 476 548 38,000  Level Salt Lake Center
Thu 04:12:47 PM 44.5119 -112.4956 298° West 479 551 38,000  Level Salt Lake Center
Thu 04:13:49 PM 44.5822 -112.6803 298° West 480 552 38,000  Level Salt Lake Center
Thu 04:14:51 PM 44.6422 -112.8375 298° West 478 550 38,000  Level Salt Lake Center
Thu 04:15:53 PM 44.7103 -113.0214 298° West 476 548 38,000  Level Salt Lake Center
Thu 04:16:55 PM 44.7689 -113.1797 298° West 477 549 38,000  Level Salt Lake Center
Thu 04:17:57 PM 44.8394 -113.3661 298° West 481 554 38,000  Level Salt Lake Center
Thu 04:18:59 PM 44.8981 -113.5261 297° West 481 554 38,000  Level Salt Lake Center
Thu 04:20:01 PM 44.9661 -113.7122 297° West 479 551 38,000  Level Salt Lake Center
Thu 04:21:02 PM 45.0244 -113.8703 298° West 476 548 38,000  Level Salt Lake Center
Thu 04:22:04 PM 45.0814 -114.0300 297° West 476 548 38,000  Level Salt Lake Center
Thu 04:23:06 PM 45.1486 -114.2167 297° West 475 547 38,000  Level Salt Lake Center
Thu 04:28:40 PM 45.4800 -115.1630 297° West 476 548 38,000  Level FlightAware ADS-B
Thu 04:29:17 PM 45.5160 -115.2680 296° West 477 549 38,000  Level FlightAware ADS-B
Thu 04:29:49 PM 45.5470 -115.3590 296° West 478 550 38,000  Level FlightAware ADS-B
Thu 04:30:25 PM 45.5820 -115.4600 296° West 477 549 38,000  Level FlightAware ADS-B
Thu 04:31:01 PM 45.6170 -115.5610 296° West 475 547 38,000  Level FlightAware ADS-B
Thu 04:31:38 PM 45.6520 -115.6640 296° West 475 547 38,000  Level FlightAware ADS-B
Thu 04:32:09 PM 45.6820 -115.7540 296° West 475 547 38,000  Level FlightAware ADS-B
Thu 04:32:45 PM 45.7160 -115.8550 296° West 474 545 38,000  Level FlightAware ADS-B
Thu 04:33:22 PM 45.7510 -115.9590 296° West 475 547 38,000  Level FlightAware ADS-B
Thu 04:33:55 PM 45.7820 -116.0530 295° West 478 550 38,000  Level FlightAware ADS-B
Thu 04:34:21 PM 45.8070 -116.1270 296° West 479 551 38,000  Level FlightAware ADS-B
Thu 04:35:01 PM 45.8450 -116.2410 296° West 479 551 38,000  Level FlightAware ADS-B
Thu 04:35:33 PM 45.8750 -116.3320 295° West 479 551 38,000  Level FlightAware ADS-B
Thu 04:36:09 PM 45.9100 -116.4380 295° West 479 551 38,000  Level FlightAware ADS-B
Thu 04:36:42 PM 45.9410 -116.5300 296° West 477 549 38,000  Level FlightAware ADS-B
Thu 04:37:19 PM 45.9750 -116.6370 295° West 478 550 38,000  Level FlightAware ADS-B
Thu 04:37:55 PM 46.0090 -116.7410 295° West 480 552 38,000  Level FlightAware ADS-B
Thu 04:38:27 PM 46.0390 -116.8330 295° West 480 552 38,000  Level FlightAware ADS-B
Thu 04:39:03 PM 46.0720 -116.9360 295° West 479 551 38,000  Level FlightAware ADS-B
Thu 04:39:40 PM 46.1070 -117.0420 295° West 479 551 38,000  Level FlightAware ADS-B
Thu 04:40:13 PM 46.1380 -117.1410 294° West 479 551 38,000  Level FlightAware ADS-B
Thu 04:41:05 PM 46.1800 -117.2720 295° West 480 552 38,000  Level FlightAware ADS-B
Thu 04:41:35 PM 46.2170 -117.3770 297° West 480 552 38,000  Level FlightAware ADS-B
Thu 04:42:15 PM 46.2540 -117.4910 295° West 479 551 38,000  Level FlightAware ADS-B
Thu 04:42:49 PM 46.2870 -117.5900 296° West 480 552 38,000  Level FlightAware ADS-B
Thu 04:43:25 PM 46.3220 -117.6950 296° West 480 552 38,000  Level FlightAware ADS-B
Thu 04:43:57 PM 46.3510 -117.7870 295° West 480 552 38,000  Level FlightAware ADS-B
Thu 04:44:35 PM 46.3870 -117.8970 295° West 481 554 38,000  Level FlightAware ADS-B
Thu 04:45:07 PM 46.4180 -117.9910 296° West 482 555 38,000  Level FlightAware ADS-B
Thu 04:45:43 PM 46.4520 -118.0970 295° West 483 556 38,000  Level FlightAware ADS-B
Thu 04:46:19 PM 46.4860 -118.2020 295° West 485 558 38,000  Level FlightAware ADS-B
Thu 04:46:51 PM 46.5160 -118.2970 295° West 486 559 38,000  Level FlightAware ADS-B
Thu 04:47:27 PM 46.5500 -118.4040 295° West 486 559 38,000  Level FlightAware ADS-B
Thu 04:48:03 PM 46.5840 -118.5090 295° West 487 560 38,000  Level FlightAware ADS-B
Thu 04:48:39 PM 46.6180 -118.6180 294° West 487 560 38,000  Level FlightAware ADS-B
Thu 04:49:12 PM 46.6480 -118.7140 295° West 488 562 38,000  Level FlightAware ADS-B
Thu 04:49:50 PM 46.6840 -118.8270 295° West 489 563 38,000  Level FlightAware ADS-B
Thu 04:50:04 PM 46.6972 -118.8700 294° West 489 563 38,000  Level FlightAware ADS-B
Thu 04:50:34 PM 46.7260 -118.9620 295° West 490 564 38,000  Level FlightAware ADS-B
Thu 04:51:04 PM 46.7539 -119.0520 294° West 491 565 38,000  Level FlightAware ADS-B
Thu 04:51:41 PM 46.7884 -119.1630 294° West 491 565 38,000  Level FlightAware ADS-B
Thu 04:52:14 PM 46.8187 -119.2610 294° West 491 565 38,000  Level FlightAware ADS-B
Thu 04:52:45 PM 46.8472 -119.3540 294° West 491 565 38,000  Level FlightAware ADS-B
Thu 04:53:15 PM 46.8753 -119.4460 294° West 492 566 38,000  Level FlightAware ADS-B
Thu 04:53:45 PM 46.9030 -119.5370 294° West 492 566 38,000  Level FlightAware ADS-B
Thu 04:54:16 PM 46.9310 -119.6290 294° West 492 566 38,000  Level FlightAware ADS-B
Thu 04:54:46 PM 46.9585 -119.7190 294° West 492 566 38,000  Level FlightAware ADS-B
Thu 04:55:16 PM 46.9866 -119.8130 294° West 492 566 38,000  Level FlightAware ADS-B
Thu 04:55:48 PM 47.0152 -119.9080 294° West 490 564 38,000  Level FlightAware ADS-B
Thu 04:56:18 PM 47.0427 -120.0000 294° West 490 564 38,000  Level FlightAware ADS-B
Thu 04:56:48 PM 47.0700 -120.0910 294° West 491 565 38,000  Level FlightAware ADS-B
Thu 04:57:19 PM 47.0977 -120.1850 293° West 491 565 38,000  Level FlightAware ADS-B
Thu 04:57:49 PM 47.1251 -120.2770 294° West 490 564 38,000  Level FlightAware ADS-B
Thu 04:58:19 PM 47.1523 -120.3690 294° West 489 563 38,000  Level FlightAware ADS-B
Thu 04:58:49 PM 47.1791 -120.4600 293° West 488 562 38,000  Level FlightAware ADS-B
Thu 04:59:20 PM 47.2061 -120.5530 293° West 490 564 38,000  Level FlightAware ADS-B
Thu 04:59:50 PM 47.2330 -120.6450 293° West 489 563 38,000  Level FlightAware ADS-B
Thu 05:00:20 PM 47.2599 -120.7380 293° West 489 563 38,000  Level FlightAware ADS-B
Thu 05:00:51 PM 47.2868 -120.8300 293° West 487 560 38,000  Level FlightAware ADS-B
Thu 05:01:21 PM 47.3134 -120.9230 293° West 487 560 38,000  Level FlightAware ADS-B
Thu 05:01:51 PM 47.3400 -121.0150 293° West 488 562 38,000  Level FlightAware ADS-B
Thu 05:02:22 PM 47.3664 -121.1080 293° West 488 562 38,000  Level FlightAware ADS-B
Thu 05:02:52 PM 47.3931 -121.2010 293° West 487 560 38,000  Level FlightAware ADS-B
Thu 05:03:23 PM 47.4193 -121.2940 293° West 488 562 38,000  Level FlightAware ADS-B
Thu 05:03:53 PM 47.4459 -121.3880 293° West 489 563 38,000  Level FlightAware ADS-B
Thu 05:04:23 PM 47.4722 -121.4810 293° West 488 562 38,000  Level FlightAware ADS-B
Thu 05:04:53 PM 47.4981 -121.5730 293° West 488 562 38,000  Level FlightAware ADS-B
Thu 05:05:24 PM 47.5242 -121.6670 292° West 487 560 38,000  Level FlightAware ADS-B
Thu 05:05:55 PM 47.5510 -121.7630 293° West 485 558 38,000  Level FlightAware ADS-B
Thu 05:06:25 PM 47.5764 -121.8550 292° West 484 557 38,000  Level FlightAware ADS-B
Thu 05:06:56 PM 47.6026 -121.9490 292° West 483 556 38,000  Level FlightAware ADS-B
Thu 05:07:27 PM 47.6285 -122.0430 292° West 483 556 38,000  Level FlightAware ADS-B
Thu 05:07:58 PM 47.6543 -122.1370 292° West 482 555 38,000  Level FlightAware ADS-B
Thu 05:08:28 PM 47.6798 -122.2310 292° West 482 555 38,000  Level FlightAware ADS-B
Thu 05:08:59 PM 47.7049 -122.3240 292° West 484 557 38,000  Level FlightAware ADS-B
Thu 05:09:29 PM 47.7301 -122.4160 292° West 485 558 38,000  Level FlightAware ADS-B
Thu 05:09:59 PM 47.7554 -122.5100 292° West 487 560 38,000  Level FlightAware ADS-B
Thu 05:10:30 PM 47.7809 -122.6050 292° West 487 560 38,000  Level FlightAware ADS-B
Thu 05:11:00 PM 47.8059 -122.6990 292° West 490 564 38,000  Level FlightAware ADS-B
Thu 05:11:30 PM 47.8311 -122.7930 292° West 491 565 38,000  Level FlightAware ADS-B
Thu 05:12:00 PM 47.8563 -122.8880 292° West 491 565 38,000  Level FlightAware ADS-B
Thu 05:12:30 PM 47.8813 -122.9820 292° West 489 563 38,000  Level FlightAware ADS-B
Thu 05:13:01 PM 47.9061 -123.0770 291° West 486 559 38,000  Level FlightAware ADS-B
Thu 05:13:31 PM 47.9308 -123.1710 291° West 484 557 38,000  Level FlightAware ADS-B
Thu 05:14:02 PM 47.9554 -123.2650 291° West 482 555 38,000  Level FlightAware ADS-B
Thu 05:14:35 PM 47.9827 -123.3700 291° West 482 555 38,000  Level FlightAware ADS-B
Thu 05:15:06 PM 48.0070 -123.4640 291° West 485 558 38,000  Level FlightAware ADS-B
Thu 05:15:41 PM 48.0356 -123.5750 291° West 486 559 38,000  Level FlightAware ADS-B
Thu 05:16:12 PM 48.0600 -123.6700 291° West 487 560 38,000  Level FlightAware ADS-B
Thu 05:16:42 PM 48.0843 -123.7650 291° West 487 560 38,000  Level FlightAware ADS-B
Thu 05:17:12 PM 48.1082 -123.8590 291° West 485 558 38,000  Level FlightAware ADS-B
Thu 05:17:43 PM 48.1331 -123.9570 291° West 485 558 38,000  Level FlightAware ADS-B
Thu 05:18:13 PM 48.1568 -124.0510 291° West 485 558 38,000  Level FlightAware ADS-B
Thu 05:18:44 PM 48.1806 -124.1460 291° West 484 557 38,000  Level FlightAware ADS-B
Thu 05:19:15 PM 48.2048 -124.2420 291° West 482 555 38,000  Level FlightAware ADS-B
Thu 05:19:45 PM 48.2284 -124.3370 290° West 481 554 38,000  Level FlightAware ADS-B
Thu 05:20:15 PM 48.2516 -124.4310 290° West 480 552 38,000  Level FlightAware ADS-B
Thu 05:20:47 PM 48.2764 -124.5320 290° West 481 554 38,000  Level FlightAware ADS-B
Thu 05:21:27 PM 48.3067 -124.6550 290° West 483 556 38,000  Level FlightAware ADS-B
Thu 05:21:58 PM 48.3289 -124.7550 288° West 484 557 38,000  Level FlightAware ADS-B
Thu 05:22:36 PM 48.3551 -124.8750 288° West 482 555 38,000  Level FlightAware ADS-B
Thu 05:23:10 PM 48.3783 -124.9820 288° West 482 555 38,000  Level FlightAware ADS-B
Thu 05:23:41 PM 48.3999 -125.0800 288° West 481 554 38,000  Level FlightAware ADS-B
Thu 05:24:13 PM 48.4225 -125.1830 288° West 482 555 38,000  Level FlightAware ADS-B
Thu 05:25:03 PM 48.4570 -125.3410 288° West 483 556 38,000  Level FlightAware ADS-B
Thu 05:25:39 PM 48.4820 -125.4550 288° West 483 556 38,000  Level FlightAware ADS-B
Thu 05:26:14 PM 48.5050 -125.5660 287° West 482 555 38,000  Level FlightAware ADS-B
Thu 05:26:47 PM 48.5280 -125.6750 288° West 481 554 38,000  Level FlightAware ADS-B
Thu 05:27:23 PM 48.5520 -125.7880 288° West 481 554 38,000  Level FlightAware ADS-B
Thu 05:27:59 PM 48.5770 -125.9050 288° West 483 556 38,000  Level FlightAware ADS-B
Thu 05:28:35 PM 48.6010 -126.0200 288° West 482 555 38,000  Level FlightAware ADS-B
Thu 05:29:24 PM 48.6290 -126.1580 287° West 482 555 38,000  Level FlightAware ADS-B
Thu 05:30:00 PM 48.6560 -126.2840 288° West 482 555 38,000  Level FlightAware ADS-B
Thu 05:30:35 PM 48.6800 -126.4010 287° West 484 557 38,000  Level FlightAware ADS-B
Thu 05:31:15 PM 48.7060 -126.5290 287° West 484 557 38,000  Level FlightAware ADS-B
Thu 05:31:45 PM 48.7240 -126.6150 288° West 482 555 38,000  Level FlightAware ADS-B
Thu 05:32:20 PM 48.7440 -126.7410 284° West 477 549 38,000  Level FlightAware ADS-B
Thu 05:33:05 PM 48.7540 -126.8750 277° West 475 547 38,000  Level FlightAware ADS-B
Thu 05:33:40 PM 48.7630 -126.9970 276° West 477 549 38,000  Level FlightAware ADS-B
Thu 05:34:14 PM 48.7700 -127.1160 275° West 474 545 38,000  Level FlightAware ADS-B
Thu 05:34:47 PM 48.7770 -127.2210 276° West 473 544 38,000  Level FlightAware ADS-B
Thu 05:35:15 PM 48.7830 -127.3050 276° West 474 545 38,000  Level FlightAware ADS-B
Thu 05:36:00 PM 48.7930 -127.4670 275° West 473 544 38,000  Level FlightAware ADS-B
Thu 05:36:38 PM 48.8010 -127.5870 276° West 472 543 38,000  Level FlightAware ADS-B
Thu 05:37:17 PM 48.8090 -127.7160 275° West 471 542 38,000  Level FlightAware ADS-B
Thu 05:37:56 PM 48.8170 -127.8470 275° West 469 540 38,000  Level FlightAware ADS-B
Thu 05:38:29 PM 48.8220 -127.9430 275° West 469 540 38,000  Level FlightAware ADS-B
Thu 05:39:03 PM 48.8300 -128.0680 276° West 469 540 38,000  Level FlightAware ADS-B
Thu 05:39:47 PM 48.8370 -128.1900 275° West 469 540 38,000  Level FlightAware ADS-B
Thu 05:40:23 PM 48.8430 -128.2910 275° West 469 540 38,000  Level FlightAware ADS-B
Thu 05:41:00 PM 48.8480 -128.3940 274° West 469 540 38,000  Level FlightAware ADS-B
Thu 05:41:36 PM 48.8540 -128.4940 275° West 469 540 38,000  Level FlightAware ADS-B
Thu 05:42:12 PM 48.8600 -128.5950 275° West 469 540 38,000  Level FlightAware ADS-B
Thu 05:42:48 PM 48.8660 -128.6950 275° West 469 540 38,000  Level FlightAware ADS-B
Thu 05:43:24 PM 48.8720 -128.7960 275° West 469 540 38,000  Level FlightAware ADS-B
Thu 05:44:01 PM 48.8770 -128.8990 274° West 469 540 38,000  Level FlightAware ADS-B
Thu 05:44:37 PM 48.8830 -129.0000 275° West 469 540 38,000  Level FlightAware ADS-B
Thu 05:45:13 PM 48.8890 -129.1010 275° West 469 540 38,000  Level FlightAware ADS-B
Thu 05:45:49 PM 48.8950 -129.2010 275° West 469 540 38,000  Level FlightAware ADS-B
Thu 05:46:25 PM 48.9010 -129.3020 275° West 469 540 38,000  Level FlightAware ADS-B
Thu 05:47:01 PM 48.9060 -129.4020 274° West 469 540 38,000  Level FlightAware ADS-B
Thu 05:47:37 PM 48.9120 -129.5030 275° West 469 540 38,000  Level FlightAware ADS-B
Thu 05:48:01 PM 48.9160 -129.5700 275° West 469 540 38,000  Level FlightAware ADS-B
Thu 05:48:37 PM 48.9220 -129.6710 275° West 469 540 38,000  Level FlightAware ADS-B
Thu 05:49:57 PM 48.9167 -130.2000 275° West 470 541 38,000  Level Vancouver Center
Thu 05:50:57 PM 48.9167 -130.4000 270° West 470 541 38,000  Level Vancouver Center
Thu 05:51:57 PM 48.9333 -130.6167 277° West 470 541 38,000  Level Vancouver Center
Thu 05:52:57 PM 48.9333 -130.8167 270° West 470 541 38,000  Level Vancouver Center
Thu 05:53:57 PM 48.9500 -131.0000 278° West 460 529 38,000  Level Vancouver Center
Thu 05:54:57 PM 48.9500 -131.2000 270° West 470 541 38,000  Level Vancouver Center
Thu 05:55:57 PM 48.9500 -131.3833 270° West 470 541 38,000  Level Vancouver Center
Thu 05:56:57 PM 48.9500 -131.6167 270° West 470 541 38,000  Level Vancouver Center
Thu 05:57:57 PM 48.9667 -131.7833 279° West 460 529 38,000  Level Vancouver Center
Thu 05:58:57 PM 48.9667 -131.9667 270° West 470 541 38,000  Level Vancouver Center
Thu 05:59:57 PM 48.9667 -132.1667 270° West 450 518 38,000  Level Vancouver Center
Thu 06:01:00 PM 48.9795 -132.3718 276° West  Level FlightAware Approximate
Thu 06:01:48 PM 49.0000 -132.4500 273° West 477 549 38,000  Level Oakland Oceanic (ODAPS)
Thu 06:08:00 PM 49.0370 -133.8396 272° West 477 549 38,000  Level FlightAware Transoceanic
Thu 06:09:00 PM 49.0410 -134.0383 272° West 477 549 38,000  Level FlightAware Transoceanic
Thu 06:10:00 PM 49.0445 -134.2370 272° West 477 549 38,000  Level FlightAware Transoceanic
Thu 06:11:00 PM 49.0478 -134.4357 271° West 477 549 38,000  Level FlightAware Transoceanic
Thu 06:12:00 PM 49.0507 -134.6344 271° West 477 549 38,000  Level FlightAware Transoceanic
Thu 06:12:29 PM 49.0500 -134.6500 271° West 484 557 38,000  Level Oakland Oceanic (ODAPS)
Thu 06:13:00 PM 49.0532 -134.8332 271° West 477 549 38,000  Level FlightAware Transoceanic
Thu 06:14:00 PM 49.0555 -135.0320 271° West 477 549 38,000  Level FlightAware Transoceanic
Thu 06:15:00 PM 49.0573 -135.2308 271° West 477 549 38,000  Level FlightAware Transoceanic
Thu 06:16:00 PM 49.0589 -135.4296 271° West 477 549 38,000  Level FlightAware Transoceanic
Thu 06:17:00 PM 49.0601 -135.6285 270° West 477 549 38,000  Level FlightAware Transoceanic
Thu 06:18:00 PM 49.0604 -135.8851 270° West 484 557 38,000  Level FlightAware Transoceanic
Thu 06:19:00 PM 49.0609 -136.0910 270° West 484 557 38,000  Level FlightAware Transoceanic
Thu 06:20:00 PM 49.0610 -136.2969 270° West 484 557 38,000  Level FlightAware Transoceanic
Thu 06:21:00 PM 49.0607 -136.5028 270° West 484 557 38,000  Level FlightAware Transoceanic
Thu 06:22:00 PM 49.0601 -136.7087 270° West 484 557 38,000  Level FlightAware Transoceanic
Thu 06:23:00 PM 49.0590 -136.9146 269° West 484 557 38,000  Level FlightAware Transoceanic
Thu 06:24:00 PM 49.0577 -137.1205 269° West 484 557 38,000  Level FlightAware Transoceanic
Thu 06:25:00 PM 49.0559 -137.3263 269° West 484 557 38,000  Level FlightAware Transoceanic
Thu 06:26:00 PM 49.0538 -137.5322 269° West 484 557 38,000  Level FlightAware Transoceanic
Thu 06:26:24 PM 49.0500 -137.5000 269° West 491 565 38,000  Level Oakland Oceanic (ODAPS)
Thu 06:27:00 PM 49.0513 -137.7380 269° West 484 557 38,000  Level FlightAware Transoceanic
Thu 06:28:00 PM 49.0485 -137.9438 269° West 484 557 38,000  Level FlightAware Transoceanic
Thu 06:29:00 PM 49.0453 -138.1496 269° West 484 557 38,000  Level FlightAware Transoceanic
Thu 06:30:00 PM 49.0417 -138.3554 268° West 484 557 38,000  Level FlightAware Transoceanic
Thu 06:31:00 PM 49.0378 -138.5611 268° West 484 557 38,000  Level FlightAware Transoceanic
Thu 06:32:00 PM 49.0317 -138.7506 268° West 491 565 38,000  Level FlightAware Transoceanic
Thu 06:33:00 PM 49.0274 -138.9590 268° West 491 565 38,000  Level FlightAware Transoceanic
Thu 06:34:00 PM 49.0227 -139.1673 268° West 491 565 38,000  Level FlightAware Transoceanic
Thu 06:35:00 PM 49.0176 -139.3755 268° West 491 565 38,000  Level FlightAware Transoceanic
Thu 06:36:00 PM 49.0121 -139.5837 268° West 491 565 38,000  Level FlightAware Transoceanic
Thu 06:37:00 PM 49.0062 -139.7919 267° West 491 565 38,000  Level FlightAware Transoceanic
Thu 06:38:00 PM 49.0000 -140.0000 274° West 491 565 38,000  Level FlightAware Transoceanic
Thu 06:38:24 PM 49.0000 -140.0000 274° West 490 564 38,000  Level Oakland Oceanic (ODAPS)
Thu 06:39:00 PM 49.0086 -140.2035 274° West 491 565 38,000  Level FlightAware Transoceanic
Thu 06:40:00 PM 49.0169 -140.4071 273° West 491 565 38,000  Level FlightAware Transoceanic
Thu 06:40:16 PM 49.0167 -140.4000 273° West 495 570 38,000  Level Oakland Oceanic (ODAPS)
Thu 06:41:00 PM 49.0248 -140.6108 273° West 491 565 38,000  Level FlightAware Transoceanic
Thu 06:42:00 PM 49.0324 -140.8145 273° West 491 565 38,000  Level FlightAware Transoceanic
Thu 06:43:00 PM 49.0396 -141.0183 273° West 491 565 38,000  Level FlightAware Transoceanic
Thu 06:44:00 PM 49.0464 -141.2221 273° West 490 564 38,000  Level FlightAware Transoceanic
Thu 06:45:00 PM 49.0529 -141.4260 273° West 490 564 38,000  Level FlightAware Transoceanic
Thu 06:46:00 PM 49.0597 -141.6504 273° West 495 570 38,000  Level FlightAware Transoceanic
Thu 06:47:00 PM 49.0655 -141.8590 272° West 495 570 38,000  Level FlightAware Transoceanic
Thu 06:48:00 PM 49.0710 -142.0676 272° West 495 570 38,000  Level FlightAware Transoceanic
Thu 06:49:00 PM 49.0761 -142.2763 272° West 495 570 38,000  Level FlightAware Transoceanic
Thu 06:50:00 PM 49.0808 -142.4850 272° West 495 570 38,000  Level FlightAware Transoceanic
Thu 06:51:00 PM 49.0852 -142.6938 272° West 495 570 38,000  Level FlightAware Transoceanic
Thu 06:52:00 PM 49.0891 -142.9026 272° West 495 570 38,000  Level FlightAware Transoceanic
Thu 06:53:00 PM 49.0928 -143.1114 271° West 495 570 38,000  Level FlightAware Transoceanic
Thu 06:54:00 PM 49.0960 -143.3203 271° West 495 570 38,000  Level FlightAware Transoceanic
Thu 06:54:08 PM 49.1000 -143.2833 271° West 494 568 38,000  Level Oakland Oceanic (ODAPS)
Thu 06:55:00 PM 49.0988 -143.5292 271° West 495 570 38,000  Level FlightAware Transoceanic
Thu 06:56:00 PM 49.1013 -143.7381 271° West 495 570 38,000  Level FlightAware Transoceanic
Thu 06:57:00 PM 49.1034 -143.9470 271° West 495 570 38,000  Level FlightAware Transoceanic
Thu 06:58:00 PM 49.1051 -144.1560 271° West 495 570 38,000  Level FlightAware Transoceanic
Thu 06:59:00 PM 49.1064 -144.3649 270° West 495 570 38,000  Level FlightAware Transoceanic
Thu 07:00:00 PM 49.1110 -144.5439 270° West 494 568 38,000  Level FlightAware Transoceanic
Thu 07:01:00 PM 49.1115 -144.7541 270° West 494 568 38,000  Level FlightAware Transoceanic
Thu 07:02:00 PM 49.1116 -144.9642 270° West 494 568 38,000  Level FlightAware Transoceanic
Thu 07:03:00 PM 49.1113 -145.1743 270° West 494 568 38,000  Level FlightAware Transoceanic
Thu 07:04:00 PM 49.1106 -145.3845 270° West 494 568 38,000  Level FlightAware Transoceanic
Thu 07:05:00 PM 49.1096 -145.5946 269° West 494 568 38,000  Level FlightAware Transoceanic
Thu 07:06:00 PM 49.1082 -145.8047 269° West 494 568 38,000  Level FlightAware Transoceanic
Thu 07:07:00 PM 49.1064 -146.0148 269° West 494 568 38,000  Level FlightAware Transoceanic
Thu 07:08:00 PM 49.1042 -146.2249 269° West 494 568 38,000  Level FlightAware Transoceanic
Thu 07:08:02 PM 49.1000 -146.1667 269° West 490 564 38,000  Level Oakland Oceanic (ODAPS)
Thu 07:09:00 PM 49.1017 -146.4350 269° West 494 568 38,000  Level FlightAware Transoceanic
Thu 07:10:00 PM 49.0987 -146.6451 269° West 494 568 38,000  Level FlightAware Transoceanic
Thu 07:11:00 PM 49.0954 -146.8551 269° West 494 568 38,000  Level FlightAware Transoceanic
Thu 07:12:00 PM 49.0917 -147.0651 268° West 494 568 38,000  Level FlightAware Transoceanic
Thu 07:13:00 PM 49.0876 -147.2750 268° West 494 568 38,000  Level FlightAware Transoceanic
Thu 07:14:00 PM 49.0808 -147.4460 268° West 490 564 38,000  Level FlightAware Transoceanic
Thu 07:15:00 PM 49.0762 -147.6591 268° West 490 564 38,000  Level FlightAware Transoceanic
Thu 07:16:00 PM 49.0712 -147.8722 268° West 490 564 38,000  Level FlightAware Transoceanic
Thu 07:17:00 PM 49.0659 -148.0853 268° West 490 564 38,000  Level FlightAware Transoceanic
Thu 07:18:00 PM 49.0601 -148.2982 268° West 490 564 38,000  Level FlightAware Transoceanic
Thu 07:19:00 PM 49.0540 -148.5112 267° West 490 564 38,000  Level FlightAware Transoceanic
Thu 07:20:00 PM 49.0474 -148.7241 267° West 490 564 38,000  Level FlightAware Transoceanic
Thu 07:21:00 PM 49.0405 -148.9369 267° West 490 564 38,000  Level FlightAware Transoceanic
Thu 07:21:53 PM 49.0333 -149.0500 267° West 494 568 38,000  Level Oakland Oceanic (ODAPS)
Thu 07:22:00 PM 49.0332 -149.1496 267° West 490 564 38,000  Level FlightAware Transoceanic
Thu 07:23:00 PM 49.0255 -149.3623 267° West 490 564 38,000  Level FlightAware Transoceanic
Thu 07:24:00 PM 49.0174 -149.5750 267° West 490 564 38,000  Level FlightAware Transoceanic
Thu 07:25:00 PM 49.0089 -149.7875 266° West 490 564 38,000  Level FlightAware Transoceanic
Thu 07:26:00 PM 49.0000 -150.0000 265° West 490 564 38,000  Level FlightAware Transoceanic
Thu 07:26:26 PM 49.0000 -150.0000 265° West 508 585 38,000  Level Oakland Oceanic (ODAPS)
Thu 07:27:00 PM 48.9886 -150.2034 265° West 490 564 38,000  Level FlightAware Transoceanic
Thu 07:28:00 PM 48.9763 -150.4149 265° West 494 568 38,000  Level FlightAware Transoceanic
Thu 07:29:00 PM 48.9639 -150.6223 265° West 494 568 38,000  Level FlightAware Transoceanic
Thu 07:30:00 PM 48.9512 -150.8295 265° West 494 568 38,000  Level FlightAware Transoceanic
Thu 07:31:00 PM 48.9380 -151.0366 264° West 494 568 38,000  Level FlightAware Transoceanic
Thu 07:32:00 PM 48.9228 -151.2694 264° West 508 585 38,000  Level FlightAware Transoceanic
Thu 07:33:00 PM 48.9086 -151.4806 264° West 508 585 38,000  Level FlightAware Transoceanic
Thu 07:34:00 PM 48.8940 -151.6917 264° West 508 585 38,000  Level FlightAware Transoceanic
Thu 07:35:00 PM 48.8790 -151.9026 264° West 508 585 38,000  Level FlightAware Transoceanic
Thu 07:35:44 PM 48.8667 -151.9833 264° West 508 585 38,000  Level Oakland Oceanic (ODAPS)
Thu 07:36:00 PM 48.8637 -152.1134 264° West 508 585 38,000  Level FlightAware Transoceanic
Thu 07:37:00 PM 48.8479 -152.3241 263° West 508 585 38,000  Level FlightAware Transoceanic
Thu 07:38:00 PM 48.8318 -152.5346 263° West 508 585 38,000  Level FlightAware Transoceanic
Thu 07:39:00 PM 48.8152 -152.7450 263° West 508 585 38,000  Level FlightAware Transoceanic
Thu 07:40:00 PM 48.7983 -152.9552 263° West 508 585 38,000  Level FlightAware Transoceanic
Thu 07:41:00 PM 48.7811 -153.1654 263° West 508 585 38,000  Level FlightAware Transoceanic
Thu 07:42:00 PM 48.7671 -153.2661 263° West 508 585 38,000  Level FlightAware Transoceanic
Thu 07:43:00 PM 48.7491 -153.4794 263° West 508 585 38,000  Level FlightAware Transoceanic
Thu 07:44:00 PM 48.7308 -153.6925 262° West 508 585 38,000  Level FlightAware Transoceanic
Thu 07:45:00 PM 48.7120 -153.9055 262° West 508 585 38,000  Level FlightAware Transoceanic
Thu 07:46:00 PM 48.6929 -154.1183 262° West 508 585 38,000  Level FlightAware Transoceanic
Thu 07:47:00 PM 48.6733 -154.3310 262° West 508 585 38,000  Level FlightAware Transoceanic
Thu 07:48:00 PM 48.6534 -154.5434 262° West 508 585 38,000  Level FlightAware Transoceanic
Thu 07:49:00 PM 48.6331 -154.7558 262° West 508 585 38,000  Level FlightAware Transoceanic
Thu 07:49:36 PM 48.6167 -154.9167 262° West 513 590 38,000  Level Oakland Oceanic (ODAPS)
Thu 07:50:00 PM 48.6124 -154.9679 262° West 508 585 38,000  Level FlightAware Transoceanic
Thu 07:51:00 PM 48.5913 -155.1799 261° West 508 585 38,000  Level FlightAware Transoceanic
Thu 07:52:00 PM 48.5698 -155.3916 261° West 508 585 38,000  Level FlightAware Transoceanic
Thu 07:53:00 PM 48.5479 -155.6033 261° West 508 585 38,000  Level FlightAware Transoceanic
Thu 07:54:00 PM 48.5256 -155.8147 261° West 508 585 38,000  Level FlightAware Transoceanic
Thu 07:55:00 PM 48.4892 -156.1476 261° West 513 590 38,000  Level FlightAware Transoceanic
Thu 07:56:00 PM 48.4667 -156.3521 260° West 513 590 38,000  Level FlightAware Transoceanic
Thu 07:57:00 PM 48.4438 -156.5565 260° West 513 590 38,000  Level FlightAware Transoceanic
Thu 07:58:00 PM 48.4205 -156.7606 260° West 513 590 38,000  Level FlightAware Transoceanic
Thu 07:59:00 PM 48.3969 -156.9646 260° West 513 590 38,000  Level FlightAware Transoceanic
Thu 08:00:00 PM 48.3730 -157.1684 260° West 513 590 38,000  Level FlightAware Transoceanic
Thu 08:00:12 PM 48.3833 -157.1167 260° West 504 580 38,000  Level Oakland Oceanic (ODAPS)
Thu 08:01:00 PM 48.3486 -157.3720 260° West 513 590 38,000  Level FlightAware Transoceanic
Thu 08:02:00 PM 48.3240 -157.5754 260° West 513 590 38,000  Level FlightAware Transoceanic
Thu 08:03:00 PM 48.2989 -157.7786 259° West 513 590 38,000  Level FlightAware Transoceanic
Thu 08:04:00 PM 48.2735 -157.9816 259° West 513 590 38,000  Level FlightAware Transoceanic
Thu 08:05:00 PM 48.2477 -158.1844 259° West 513 590 38,000  Level FlightAware Transoceanic
Thu 08:06:00 PM 48.2279 -158.3576 259° West 504 580 38,000  Level FlightAware Transoceanic
Thu 08:07:00 PM 48.2007 -158.5637 259° West 504 580 38,000  Level FlightAware Transoceanic
Thu 08:08:00 PM 48.1731 -158.7696 259° West 504 580 38,000  Level FlightAware Transoceanic
Thu 08:09:00 PM 48.1452 -158.9752 258° West 504 580 38,000  Level FlightAware Transoceanic
Thu 08:10:00 PM 48.1169 -159.1806 258° West 504 580 38,000  Level FlightAware Transoceanic
Thu 08:11:00 PM 48.0882 -159.3858 258° West 504 580 38,000  Level FlightAware Transoceanic
Thu 08:12:00 PM 48.0592 -159.5908 258° West 504 580 38,000  Level FlightAware Transoceanic
Thu 08:13:00 PM 48.0298 -159.7955 258° West 504 580 38,000  Level FlightAware Transoceanic
Thu 08:14:00 PM 48.0000 -160.0000 257° West 504 580 38,000  Level FlightAware Transoceanic
Thu 08:15:00 PM 47.9699 -160.1990 257° West 504 580 38,000  Level FlightAware Transoceanic
Thu 08:16:00 PM 47.9395 -160.3978 257° West 504 580 38,000  Level FlightAware Transoceanic
Thu 08:17:00 PM 47.9088 -160.5964 257° West 504 580 38,000  Level FlightAware Transoceanic
Thu 08:18:00 PM 47.8777 -160.7947 257° West 504 580 38,000  Level FlightAware Transoceanic
Thu 08:19:00 PM 47.8463 -160.9928 257° West 504 580 38,000  Level FlightAware Transoceanic
Thu 08:20:00 PM 47.8145 -161.1906 256° West 504 580 38,000  Level FlightAware Transoceanic
Thu 08:21:00 PM 47.7824 -161.3882 256° West 504 580 38,000  Level FlightAware Transoceanic
Thu 08:22:00 PM 47.7499 -161.5856 256° West 504 580 38,000  Level FlightAware Transoceanic
Thu 08:23:00 PM 47.7172 -161.7827 256° West 504 580 38,000  Level FlightAware Transoceanic
Thu 08:24:00 PM 47.6840 -161.9795 256° West 504 580 38,000  Level FlightAware Transoceanic
Thu 08:25:00 PM 47.6506 -162.1761 256° West 504 580 38,000  Level FlightAware Transoceanic
Thu 08:26:00 PM 47.6168 -162.3725 256° West 504 580 38,000 1,319 Level FlightAware Transoceanic
Thu 08:26:31 PM 47.6500 -162.2000 256° West 491 565 40,000  Climbing Oakland Oceanic (ODAPS)
Thu 08:27:00 PM 47.5826 -162.5686 255° West 504 580 38,000 -1,348 Descending FlightAware Transoceanic
Thu 08:28:00 PM 47.5482 -162.7644 255° West 504 580 38,000  Level FlightAware Transoceanic
Thu 08:29:00 PM 47.5134 -162.9600 255° West 504 580 38,000  Level FlightAware Transoceanic
Thu 08:30:00 PM 47.4783 -163.1553 255° West 504 580 38,000  Level FlightAware Transoceanic
Thu 08:31:00 PM 47.4428 -163.3504 255° West 504 580 38,000  Level FlightAware Transoceanic
Thu 08:32:00 PM 47.4070 -163.5452 255° West 504 580 38,000 1,000 Level FlightAware Transoceanic
Thu 08:33:00 PM 47.3702 -163.7588 255° West 491 565 40,000 1,000 Climbing FlightAware Transoceanic
Thu 08:34:00 PM 47.3337 -163.9525 254° West 491 565 40,000  Level FlightAware Transoceanic
Thu 08:35:00 PM 47.2969 -164.1459 254° West 491 565 40,000  Level FlightAware Transoceanic
Thu 08:36:00 PM 47.2598 -164.3390 254° West 491 565 40,000  Level FlightAware Transoceanic
Thu 08:37:00 PM 47.2224 -164.5318 254° West 491 565 40,000  Level FlightAware Transoceanic
Thu 08:38:00 PM 47.1846 -164.7244 254° West 491 565 40,000  Level FlightAware Transoceanic
Thu 08:39:00 PM 47.1466 -164.9167 254° West 491 565 40,000  Level FlightAware Transoceanic
Thu 08:40:00 PM 47.1082 -165.1088 254° West 491 565 40,000  Level FlightAware Transoceanic
Thu 08:41:00 PM 47.0694 -165.3005 253° West 491 565 40,000  Level FlightAware Transoceanic
Thu 08:42:00 PM 47.0304 -165.4920 253° West 491 565 40,000  Level FlightAware Transoceanic
Thu 08:43:00 PM 46.9910 -165.6832 253° West 491 565 40,000  Level FlightAware Transoceanic
Thu 08:44:00 PM 46.9514 -165.8741 253° West 491 565 40,000  Level FlightAware Transoceanic
Thu 08:45:00 PM 46.9114 -166.0647 253° West 491 565 40,000  Level FlightAware Transoceanic
Thu 08:46:00 PM 46.8711 -166.2551 253° West 491 565 40,000  Level FlightAware Transoceanic
Thu 08:47:00 PM 46.8304 -166.4451 253° West 491 565 40,000  Level FlightAware Transoceanic
Thu 08:47:35 PM 47.0500 -165.3667 253° West 487 560 40,000  Level Oakland Oceanic (ODAPS)
Thu 08:48:00 PM 46.7895 -166.6349 252° West 491 565 40,000  Level FlightAware Transoceanic
Thu 08:49:00 PM 46.7483 -166.8244 252° West 491 565 40,000  Level FlightAware Transoceanic
Thu 08:50:00 PM 46.7067 -167.0136 252° West 491 565 40,000  Level FlightAware Transoceanic
Thu 08:51:00 PM 46.6648 -167.2025 252° West 491 565 40,000  Level FlightAware Transoceanic
Thu 08:52:00 PM 46.6226 -167.3911 252° West 491 565 40,000  Level FlightAware Transoceanic
Thu 08:53:00 PM 46.6111 -167.4274 252° West 487 560 40,000  Level FlightAware Transoceanic
Thu 08:54:00 PM 46.5694 -167.6130 252° West 487 560 40,000  Level FlightAware Transoceanic
Thu 08:55:00 PM 46.5273 -167.7984 252° West 487 560 40,000  Level FlightAware Transoceanic
Thu 08:56:00 PM 46.4850 -167.9835 252° West 487 560 40,000  Level FlightAware Transoceanic
Thu 08:56:13 PM 46.5000 -167.9333 251° West 482 555 40,000  Level Oakland Oceanic (ODAPS)
Thu 08:57:00 PM 46.4424 -168.1682 251° West 487 560 40,000  Level FlightAware Transoceanic
Thu 08:58:00 PM 46.3995 -168.3527 251° West 487 560 40,000  Level FlightAware Transoceanic
Thu 08:59:00 PM 46.3563 -168.5370 251° West 487 560 40,000  Level FlightAware Transoceanic
Thu 09:00:00 PM 46.3128 -168.7209 251° West 487 560 40,000  Level FlightAware Transoceanic
Thu 09:01:00 PM 46.2690 -168.9045 251° West 487 560 40,000  Level FlightAware Transoceanic
Thu 09:02:00 PM 46.2319 -169.0653 251° West 482 555 40,000  Level FlightAware Transoceanic
Thu 09:03:00 PM 46.1861 -169.2529 251° West 482 555 40,000  Level FlightAware Transoceanic
Thu 09:04:00 PM 46.1400 -169.4401 250° West 482 555 40,000  Level FlightAware Transoceanic
Thu 09:05:00 PM 46.0937 -169.6271 250° West 482 555 40,000  Level FlightAware Transoceanic
Thu 09:06:00 PM 46.0470 -169.8137 250° West 482 555 40,000  Level FlightAware Transoceanic
Thu 09:07:00 PM 46.0000 -170.0000 265° West 482 555 40,000  Level FlightAware Transoceanic
Thu 09:08:00 PM 45.9891 -170.1952 265° West 482 555 40,000  Level FlightAware Transoceanic
Thu 09:08:26 PM 45.9833 -170.2000 265° West 486 559 40,000  Level Oakland Oceanic (ODAPS)
Thu 09:09:00 PM 45.9779 -170.3904 265° West 482 555 40,000  Level FlightAware Transoceanic
Thu 09:09:52 PM 45.9667 -170.4667 265° West 475 547 40,000  Level Oakland Oceanic (ODAPS)
Thu 09:10:00 PM 45.9663 -170.5854 265° West 482 555 40,000  Level FlightAware Transoceanic
Thu 09:11:00 PM 45.9544 -170.7804 265° West 482 555 40,000  Level FlightAware Transoceanic
Thu 09:12:00 PM 45.9421 -170.9753 265° West 482 555 40,000  Level FlightAware Transoceanic
Thu 09:13:00 PM 45.9296 -171.1701 265° West 482 555 40,000  Level FlightAware Transoceanic
Thu 09:14:00 PM 45.9130 -171.3465 265° West 486 559 40,000  Level FlightAware Transoceanic
Thu 09:15:00 PM 45.9002 -171.5372 264° West 486 559 40,000  Level FlightAware Transoceanic
Thu 09:16:00 PM 45.8929 -171.6263 264° West 475 547 40,000  Level FlightAware Transoceanic
Thu 09:17:00 PM 45.8795 -171.8192 264° West 475 547 40,000  Level FlightAware Transoceanic
Thu 09:18:00 PM 45.8657 -172.0121 264° West 475 547 40,000  Level FlightAware Transoceanic
Thu 09:19:00 PM 45.8517 -172.2049 264° West 475 547 40,000  Level FlightAware Transoceanic
Thu 09:20:00 PM 45.8372 -172.3976 264° West 475 547 40,000  Level FlightAware Transoceanic
Thu 09:21:00 PM 45.8225 -172.5901 264° West 475 547 40,000  Level FlightAware Transoceanic
Thu 09:22:00 PM 45.8075 -172.7826 264° West 475 547 40,000  Level FlightAware Transoceanic
Thu 09:23:00 PM 45.7921 -172.9749 263° West 475 547 40,000  Level FlightAware Transoceanic
Thu 09:23:45 PM 45.7833 -173.0667 263° West 471 542 40,000  Level Oakland Oceanic (ODAPS)
Thu 09:24:00 PM 45.7764 -173.1672 263° West 475 547 40,000  Level FlightAware Transoceanic
Thu 09:25:00 PM 45.7604 -173.3593 263° West 475 547 40,000  Level FlightAware Transoceanic
Thu 09:26:00 PM 45.7440 -173.5514 263° West 475 547 40,000  Level FlightAware Transoceanic
Thu 09:27:00 PM 45.7274 -173.7433 263° West 475 547 40,000  Level FlightAware Transoceanic
Thu 09:28:00 PM 45.7104 -173.9351 263° West 475 547 40,000  Level FlightAware Transoceanic
Thu 09:29:00 PM 45.6931 -174.1268 263° West 475 547 40,000  Level FlightAware Transoceanic
Thu 09:30:00 PM 45.6850 -174.2033 263° West 471 542 40,000  Level FlightAware Transoceanic
Thu 09:31:00 PM 45.6675 -174.3924 262° West 471 542 40,000  Level FlightAware Transoceanic
Thu 09:32:00 PM 45.6497 -174.5813 262° West 471 542 40,000  Level FlightAware Transoceanic
Thu 09:33:00 PM 45.6316 -174.7701 262° West 471 542 40,000  Level FlightAware Transoceanic
Thu 09:34:00 PM 45.6132 -174.9588 262° West 471 542 40,000  Level FlightAware Transoceanic
Thu 09:35:00 PM 45.5945 -175.1474 262° West 471 542 40,000  Level FlightAware Transoceanic
Thu 09:36:00 PM 45.5754 -175.3358 262° West 471 542 40,000  Level FlightAware Transoceanic
Thu 09:37:00 PM 45.5561 -175.5241 262° West 471 542 40,000  Level FlightAware Transoceanic
Thu 09:37:38 PM 45.5500 -175.6333 261° West 479 551 40,000  Level Oakland Oceanic (ODAPS)
Thu 09:38:00 PM 45.5364 -175.7123 261° West 471 542 40,000  Level FlightAware Transoceanic
Thu 09:39:00 PM 45.5164 -175.9003 261° West 471 542 40,000  Level FlightAware Transoceanic
Thu 09:40:00 PM 45.4962 -176.0882 261° West 471 542 40,000  Level FlightAware Transoceanic
Thu 09:41:00 PM 45.4756 -176.2760 261° West 471 542 40,000  Level FlightAware Transoceanic
Thu 09:42:00 PM 45.4547 -176.4636 261° West 471 542 40,000  Level FlightAware Transoceanic
Thu 09:43:00 PM 45.4282 -176.7328 261° West 479 551 40,000  Level FlightAware Transoceanic
Thu 09:44:00 PM 45.4068 -176.9155 260° West 479 551 40,000  Level FlightAware Transoceanic
Thu 09:45:00 PM 45.3852 -177.0982 260° West 479 551 40,000  Level FlightAware Transoceanic
Thu 09:46:00 PM 45.3633 -177.2807 260° West 479 551 40,000  Level FlightAware Transoceanic
Thu 09:47:00 PM 45.3411 -177.4630 260° West 479 551 40,000  Level FlightAware Transoceanic
Thu 09:48:00 PM 45.3186 -177.6452 260° West 479 551 40,000  Level FlightAware Transoceanic
Thu 09:49:00 PM 45.2958 -177.8273 260° West 479 551 40,000  Level FlightAware Transoceanic
Thu 09:50:00 PM 45.2727 -178.0092 260° West 479 551 40,000  Level FlightAware Transoceanic
Thu 09:51:00 PM 45.2494 -178.1909 260° West 479 551 40,000  Level FlightAware Transoceanic
Thu 09:51:27 PM 45.2500 -178.2167 259° West 474 545 40,000  Level Oakland Oceanic (ODAPS)
Thu 09:52:00 PM 45.2257 -178.3725 259° West 479 551 40,000  Level FlightAware Transoceanic
Thu 09:53:00 PM 45.2018 -178.5540 259° West 479 551 40,000  Level FlightAware Transoceanic
Thu 09:54:00 PM 45.1776 -178.7353 259° West 479 551 40,000  Level FlightAware Transoceanic
Thu 09:55:00 PM 45.1530 -178.9164 259° West 479 551 40,000  Level FlightAware Transoceanic
Thu 09:56:00 PM 45.1283 -179.0974 259° West 479 551 40,000  Level FlightAware Transoceanic
Thu 09:57:00 PM 45.1032 -179.2783 259° West 479 551 40,000  Level FlightAware Transoceanic
Thu 09:58:00 PM 45.0779 -179.4666 259° West 474 545 40,000  Level FlightAware Transoceanic
Thu 09:59:00 PM 45.0522 -179.6446 258° West 474 545 40,000  Level FlightAware Transoceanic
Thu 10:00:00 PM 45.0262 -179.8224 258° West 474 545 40,000  Level FlightAware Transoceanic
Thu 10:01:00 PM 45.0000 -180.0000 258° West 474 545 40,000  Level FlightAware Transoceanic
Thu 10:01:14 PM 45.0000 180.0000 258° West 480 552 40,000  Level Oakland Oceanic (ODAPS)
Thu 10:02:00 PM 44.9731 179.8222 258° West 474 545 40,000  Level FlightAware Transoceanic
Thu 10:03:00 PM 44.9459 179.6445 258° West 474 545 40,000  Level FlightAware Transoceanic
Thu 10:04:00 PM 44.9184 179.4670 258° West 474 545 40,000  Level FlightAware Transoceanic
Thu 10:05:00 PM 44.8906 179.2897 257° West 474 545 40,000  Level FlightAware Transoceanic
Thu 10:05:20 PM 44.8833 179.2500 257° West 479 551 40,000  Level Oakland Oceanic (ODAPS)
Thu 10:06:00 PM 44.8626 179.1125 257° West 474 545 40,000  Level FlightAware Transoceanic
Thu 10:07:00 PM 44.8282 178.8976 257° West 480 552 40,000  Level FlightAware Transoceanic
Thu 10:08:00 PM 44.7985 178.7145 257° West 480 552 40,000  Level FlightAware Transoceanic
Thu 10:09:00 PM 44.7686 178.5316 257° West 480 552 40,000  Level FlightAware Transoceanic
Thu 10:10:00 PM 44.7383 178.3489 257° West 480 552 40,000  Level FlightAware Transoceanic
Thu 10:11:00 PM 44.7048 178.1538 257° West 479 551 40,000  Level FlightAware Transoceanic
Thu 10:12:00 PM 44.6740 177.9718 257° West 479 551 40,000  Level FlightAware Transoceanic
Thu 10:13:00 PM 44.6429 177.7899 256° West 479 551 40,000  Level FlightAware Transoceanic
Thu 10:14:00 PM 44.6115 177.6083 256° West 479 551 40,000  Level FlightAware Transoceanic
Thu 10:15:00 PM 44.5799 177.4268 256° West 479 551 40,000  Level FlightAware Transoceanic
Thu 10:16:00 PM 44.5480 177.2456 256° West 479 551 40,000  Level FlightAware Transoceanic
Thu 10:17:00 PM 44.5158 177.0646 256° West 479 551 40,000  Level FlightAware Transoceanic
Thu 10:18:00 PM 44.4833 176.8837 256° West 479 551 40,000  Level FlightAware Transoceanic
Thu 10:19:00 PM 44.4505 176.7031 256° West 479 551 40,000  Level FlightAware Transoceanic
Thu 10:19:10 PM 44.4500 176.7333 256° West 475 547 40,000  Level Oakland Oceanic (ODAPS)
Thu 10:20:00 PM 44.4174 176.5226 256° West 479 551 40,000  Level FlightAware Transoceanic
Thu 10:21:00 PM 44.3840 176.3424 255° West 479 551 40,000  Level FlightAware Transoceanic
Thu 10:22:00 PM 44.3504 176.1624 255° West 479 551 40,000  Level FlightAware Transoceanic
Thu 10:23:00 PM 44.3165 175.9825 255° West 479 551 40,000  Level FlightAware Transoceanic
Thu 10:24:00 PM 44.2823 175.8029 255° West 479 551 40,000  Level FlightAware Transoceanic
Thu 10:25:00 PM 44.2529 175.6766 255° West 475 547 40,000  Level FlightAware Transoceanic
Thu 10:26:00 PM 44.2192 175.5012 255° West 475 547 40,000  Level FlightAware Transoceanic
Thu 10:27:00 PM 44.1851 175.3260 255° West 475 547 40,000  Level FlightAware Transoceanic
Thu 10:28:00 PM 44.1508 175.1510 255° West 475 547 40,000  Level FlightAware Transoceanic
Thu 10:29:00 PM 44.1162 174.9762 255° West 475 547 40,000  Level FlightAware Transoceanic
Thu 10:30:00 PM 44.0813 174.8016 254° West 475 547 40,000  Level FlightAware Transoceanic
Thu 10:31:00 PM 44.0462 174.6272 254° West 475 547 40,000  Level FlightAware Transoceanic
Thu 10:32:00 PM 44.0108 174.4530 254° West 475 547 40,000  Level FlightAware Transoceanic
Thu 10:33:00 PM 43.9752 174.2790 254° West 475 547 40,000  Level FlightAware Transoceanic
Thu 10:33:03 PM 43.9833 174.3000 254° West 474 545 40,000  Level Oakland Oceanic (ODAPS)
Thu 10:34:00 PM 43.9393 174.1052 254° West 475 547 40,000  Level FlightAware Transoceanic
Thu 10:35:00 PM 43.9031 173.9317 254° West 475 547 40,000  Level FlightAware Transoceanic
Thu 10:36:00 PM 43.8667 173.7583 254° West 475 547 40,000  Level FlightAware Transoceanic
Thu 10:37:00 PM 43.8300 173.5852 254° West 475 547 40,000  Level FlightAware Transoceanic
Thu 10:38:00 PM 43.7930 173.4122 253° West 475 547 40,000  Level FlightAware Transoceanic
Thu 10:39:00 PM 43.7621 173.2553 253° West 474 545 40,000  Level FlightAware Transoceanic
Thu 10:40:00 PM 43.7243 173.0820 253° West 474 545 40,000  Level FlightAware Transoceanic
Thu 10:41:00 PM 43.6863 172.9088 253° West 474 545 40,000  Level FlightAware Transoceanic
Thu 10:42:00 PM 43.6480 172.7359 253° West 474 545 40,000  Level FlightAware Transoceanic
Thu 10:43:00 PM 43.6094 172.5632 253° West 474 545 40,000  Level FlightAware Transoceanic
Thu 10:44:00 PM 43.5705 172.3908 253° West 474 545 40,000  Level FlightAware Transoceanic
Thu 10:45:00 PM 43.5315 172.2185 253° West 474 545 40,000  Level FlightAware Transoceanic
Thu 10:46:00 PM 43.4921 172.0465 252° West 474 545 40,000  Level FlightAware Transoceanic
Thu 10:46:55 PM 43.4667 171.9167 252° West 465 535 40,000  Level Oakland Oceanic (ODAPS)
Thu 10:47:00 PM 43.4525 171.8747 252° West 474 545 40,000  Level FlightAware Transoceanic
Thu 10:48:00 PM 43.4126 171.7031 252° West 474 545 40,000  Level FlightAware Transoceanic
Thu 10:49:00 PM 43.3725 171.5318 252° West 474 545 40,000  Level FlightAware Transoceanic
Thu 10:50:00 PM 43.3321 171.3607 252° West 474 545 40,000  Level FlightAware Transoceanic
Thu 10:51:00 PM 43.2915 171.1898 252° West 474 545 40,000  Level FlightAware Transoceanic
Thu 10:52:00 PM 43.2506 171.0191 252° West 474 545 40,000  Level FlightAware Transoceanic
Thu 10:53:00 PM 43.2161 170.8676 251° West 465 535 40,000  Level FlightAware Transoceanic
Thu 10:54:00 PM 43.1734 170.6936 251° West 465 535 40,000  Level FlightAware Transoceanic
Thu 10:55:00 PM 43.1304 170.5198 251° West 465 535 40,000  Level FlightAware Transoceanic
Thu 10:56:00 PM 43.0872 170.3463 251° West 465 535 40,000  Level FlightAware Transoceanic
Thu 10:57:00 PM 43.0437 170.1730 251° West 465 535 40,000  Level FlightAware Transoceanic
Thu 10:58:00 PM 43.0000 170.0000 252° West 465 535 40,000  Level FlightAware Transoceanic
Thu 10:58:51 PM 43.0000 170.0000 252° West 453 521 40,000  Level Oakland Oceanic (ODAPS)
Thu 10:59:00 PM 42.9612 169.8417 251° West 465 535 40,000  Level FlightAware Transoceanic
Thu 11:00:00 PM 42.9222 169.6836 251° West 465 535 40,000  Level FlightAware Transoceanic
Thu 11:00:48 PM 42.9167 169.6833 251° West 451 519 40,000  Level Oakland Oceanic (ODAPS)
Thu 11:01:00 PM 42.8830 169.5256 251° West 465 535 40,000  Level FlightAware Transoceanic
Thu 11:02:00 PM 42.8436 169.3679 251° West 465 535 40,000  Level FlightAware Transoceanic
Thu 11:03:00 PM 42.8039 169.2104 251° West 465 535 40,000  Level FlightAware Transoceanic
Thu 11:04:00 PM 42.7641 169.0531 251° West 465 535 40,000  Level FlightAware Transoceanic
Thu 11:05:00 PM 42.7566 169.0236 251° West 453 521 40,000  Level FlightAware Transoceanic
Thu 11:06:00 PM 42.7152 168.8616 251° West 453 521 40,000  Level FlightAware Transoceanic
Thu 11:07:00 PM 42.6708 168.7086 251° West 451 519 40,000  Level FlightAware Transoceanic
Thu 11:08:00 PM 42.6291 168.5469 251° West 451 519 40,000  Level FlightAware Transoceanic
Thu 11:09:00 PM 42.5871 168.3854 250° West 451 519 40,000  Level FlightAware Transoceanic
Thu 11:10:00 PM 42.5448 168.2242 250° West 451 519 40,000  Level FlightAware Transoceanic
Thu 11:11:00 PM 42.5024 168.0631 250° West 451 519 40,000  Level FlightAware Transoceanic
Thu 11:12:00 PM 42.4597 167.9023 250° West 451 519 40,000  Level FlightAware Transoceanic
Thu 11:13:00 PM 42.4168 167.7417 250° West 451 519 40,000  Level FlightAware Transoceanic
Thu 11:14:00 PM 42.3737 167.5813 250° West 451 519 40,000  Level FlightAware Transoceanic
Thu 11:14:40 PM 42.3500 167.4833 250° West 446 513 40,000  Level Oakland Oceanic (ODAPS)
Thu 11:15:00 PM 42.3303 167.4211 250° West 451 519 40,000  Level FlightAware Transoceanic
Thu 11:16:00 PM 42.2868 167.2612 250° West 451 519 40,000  Level FlightAware Transoceanic
Thu 11:17:00 PM 42.2430 167.1015 250° West 451 519 40,000  Level FlightAware Transoceanic
Thu 11:18:00 PM 42.1990 166.9420 250° West 451 519 40,000  Level FlightAware Transoceanic
Thu 11:19:00 PM 42.1548 166.7827 249° West 451 519 40,000  Level FlightAware Transoceanic
Thu 11:20:00 PM 42.0941 166.5572 249° West 446 513 40,000  Level FlightAware Transoceanic
Thu 11:21:00 PM 42.0507 166.4035 249° West 446 513 40,000  Level FlightAware Transoceanic
Thu 11:22:00 PM 42.0071 166.2501 249° West 446 513 40,000  Level FlightAware Transoceanic
Thu 11:23:00 PM 41.9633 166.0969 249° West 446 513 40,000  Level FlightAware Transoceanic
Thu 11:24:00 PM 41.9194 165.9439 249° West 446 513 40,000  Level FlightAware Transoceanic
Thu 11:25:00 PM 41.8752 165.7911 249° West 446 513 40,000  Level FlightAware Transoceanic
Thu 11:26:00 PM 41.8308 165.6385 249° West 446 513 40,000  Level FlightAware Transoceanic
Thu 11:27:00 PM 41.7862 165.4862 249° West 446 513 40,000  Level FlightAware Transoceanic
Thu 11:28:00 PM 41.7414 165.3340 248° West 446 513 40,000  Level FlightAware Transoceanic
Thu 11:28:30 PM 41.7500 165.3667 248° West 442 509 40,000  Level Oakland Oceanic (ODAPS)
Thu 11:29:00 PM 41.6964 165.1821 248° West 446 513 40,000  Level FlightAware Transoceanic
Thu 11:30:00 PM 41.6512 165.0303 248° West 446 513 40,000  Level FlightAware Transoceanic
Thu 11:31:00 PM 41.6058 164.8788 248° West 446 513 40,000  Level FlightAware Transoceanic
Thu 11:32:00 PM 41.5602 164.7275 248° West 446 513 40,000  Level FlightAware Transoceanic
Thu 11:33:00 PM 41.5144 164.5765 248° West 446 513 40,000  Level FlightAware Transoceanic
Thu 11:34:00 PM 41.4758 164.4526 248° West 442 509 40,000  Level FlightAware Transoceanic
Thu 11:35:00 PM 41.4294 164.3010 248° West 442 509 40,000  Level FlightAware Transoceanic
Thu 11:36:00 PM 41.3828 164.1496 248° West 442 509 40,000  Level FlightAware Transoceanic
Thu 11:37:00 PM 41.3360 163.9984 248° West 442 509 40,000  Level FlightAware Transoceanic
Thu 11:38:00 PM 41.2891 163.8475 247° West 442 509 40,000  Level FlightAware Transoceanic
Thu 11:39:00 PM 41.2419 163.6968 247° West 442 509 40,000  Level FlightAware Transoceanic
Thu 11:40:00 PM 41.1945 163.5463 247° West 442 509 40,000  Level FlightAware Transoceanic
Thu 11:41:00 PM 41.1469 163.3960 247° West 442 509 40,000  Level FlightAware Transoceanic
Thu 11:42:00 PM 41.0991 163.2459 247° West 442 509 40,000  Level FlightAware Transoceanic
Thu 11:43:00 PM 41.0512 163.0961 247° West 442 509 40,000  Level FlightAware Transoceanic
Thu 11:44:00 PM 41.0030 162.9464 247° West 442 509 40,000  Level FlightAware Transoceanic
Thu 11:45:00 PM 40.9547 162.7970 247° West 442 509 40,000  Level FlightAware Transoceanic
Thu 11:46:00 PM 40.9061 162.6478 247° West 442 509 40,000  Level FlightAware Transoceanic
Thu 11:47:00 PM 40.8574 162.4989 247° West 442 509 40,000  Level FlightAware Transoceanic
Thu 11:48:00 PM 40.8084 162.3501 246° West 442 509 40,000  Level FlightAware Transoceanic
Thu 11:49:00 PM 40.7593 162.2016 246° West 442 509 40,000  Level FlightAware Transoceanic
Thu 11:50:00 PM 40.7100 162.0533 246° West 442 509 40,000  Level FlightAware Transoceanic
Thu 11:51:00 PM 40.6605 161.9052 246° West 442 509 40,000  Level FlightAware Transoceanic
Thu 11:52:00 PM 40.6108 161.7573 246° West 442 509 40,000  Level FlightAware Transoceanic
Thu 11:53:00 PM 40.5609 161.6096 246° West 442 509 40,000  Level FlightAware Transoceanic
Thu 11:54:00 PM 40.5109 161.4622 246° West 442 509 40,000  Level FlightAware Transoceanic
Thu 11:55:00 PM 40.4606 161.3150 246° West 442 509 40,000  Level FlightAware Transoceanic
Thu 11:56:00 PM 40.4102 161.1680 246° West 442 509 40,000  Level FlightAware Transoceanic
Thu 11:57:00 PM 40.3595 161.0212 246° West 442 509 40,000  Level FlightAware Transoceanic
Thu 11:58:00 PM 40.3087 160.8747 245° Southwest 442 509 40,000  Level FlightAware Transoceanic
Thu 11:59:00 PM 40.2577 160.7283 245° Southwest 442 509 40,000  Level FlightAware Transoceanic
Fri 12:00:00 AM 40.2066 160.5822 245° Southwest 442 509 40,000  Level FlightAware Transoceanic
Fri 12:01:00 AM 40.1552 160.4363 245° Southwest 442 509 40,000  Level FlightAware Transoceanic
Fri 12:02:00 AM 40.1036 160.2907 245° Southwest 442 509 40,000  Level FlightAware Transoceanic
Fri 12:03:00 AM 40.0519 160.1452 245° Southwest 442 509 40,000  Level FlightAware Transoceanic
Fri 12:04:00 AM 40.0000 160.0000 252° West 442 509 40,000  Level FlightAware Transoceanic
Fri 12:05:00 AM 39.9633 159.8514 252° West 442 509 40,000  Level FlightAware Transoceanic
Fri 12:06:00 AM 39.9264 159.7029 252° West 442 509 40,000  Level FlightAware Transoceanic
Fri 12:07:00 AM 39.8894 159.5546 252° West 442 509 40,000  Level FlightAware Transoceanic
Fri 12:08:00 AM 39.8521 159.4064 252° West 442 509 40,000  Level FlightAware Transoceanic
Fri 12:09:00 AM 39.8147 159.2585 252° West 442 509 40,000  Level FlightAware Transoceanic
Fri 12:10:00 AM 39.7771 159.1106 252° West 442 509 40,000  Level FlightAware Transoceanic
Fri 12:11:00 AM 39.7393 158.9630 252° West 442 509 40,000  Level FlightAware Transoceanic
Fri 12:12:00 AM 39.7013 158.8155 251° West 442 509 40,000  Level FlightAware Transoceanic
Fri 12:13:00 AM 39.6631 158.6681 251° West 442 509 40,000  Level FlightAware Transoceanic
Fri 12:14:00 AM 39.6247 158.5210 251° West 442 509 40,000  Level FlightAware Transoceanic
Fri 12:15:00 AM 39.5862 158.3739 251° West 442 509 40,000  Level FlightAware Transoceanic
Fri 12:16:00 AM 39.5474 158.2271 251° West 442 509 40,000  Level FlightAware Transoceanic
Fri 12:17:00 AM 39.5085 158.0804 251° West 442 509 40,000  Level FlightAware Transoceanic
Fri 12:18:00 AM 39.4694 157.9339 251° West 442 509 40,000  Level FlightAware Transoceanic
Fri 12:19:00 AM 39.4301 157.7875 251° West 442 509 40,000  Level FlightAware Transoceanic
Fri 12:20:00 AM 39.3906 157.6413 251° West 442 509 40,000  Level FlightAware Transoceanic
Fri 12:21:00 AM 39.3510 157.4953 251° West 442 509 40,000  Level FlightAware Transoceanic
Fri 12:22:00 AM 39.3111 157.3495 251° West 442 509 40,000  Level FlightAware Transoceanic
Fri 12:23:00 AM 39.2711 157.2038 250° West 442 509 40,000  Level FlightAware Transoceanic
Fri 12:24:00 AM 39.2309 157.0582 250° West 442 509 40,000  Level FlightAware Transoceanic
Fri 12:25:00 AM 39.1905 156.9129 250° West 442 509 40,000  Level FlightAware Transoceanic
Fri 12:26:00 AM 39.1500 156.7677 250° West 442 509 40,000  Level FlightAware Transoceanic
Fri 12:27:00 AM 39.1092 156.6227 250° West 442 509 40,000  Level FlightAware Transoceanic
Fri 12:28:00 AM 39.0683 156.4778 250° West 442 509 40,000  Level FlightAware Transoceanic
Fri 12:29:00 AM 39.0272 156.3331 250° West 442 509 40,000  Level FlightAware Transoceanic
Fri 12:30:00 AM 38.9859 156.1886 250° West 442 509 40,000  Level FlightAware Transoceanic
Fri 12:31:00 AM 38.9445 156.0443 250° West 442 509 40,000  Level FlightAware Transoceanic
Fri 12:32:00 AM 38.9028 155.9001 250° West 442 509 40,000  Level FlightAware Transoceanic
Fri 12:33:00 AM 38.8610 155.7561 249° West 442 509 40,000  Level FlightAware Transoceanic
Fri 12:34:00 AM 38.8190 155.6122 249° West 442 509 40,000  Level FlightAware Transoceanic
Fri 12:35:00 AM 38.7768 155.4686 249° West 442 509 40,000  Level FlightAware Transoceanic
Fri 12:36:00 AM 38.7345 155.3251 249° West 442 509 40,000  Level FlightAware Transoceanic
Fri 12:37:00 AM 38.6920 155.1817 249° West 442 509 40,000  Level FlightAware Transoceanic
Fri 12:38:00 AM 38.6493 155.0386 249° West 442 509 40,000  Level FlightAware Transoceanic
Fri 12:39:00 AM 38.6064 154.8956 249° West 442 509 40,000  Level FlightAware Transoceanic
Fri 12:40:00 AM 38.5634 154.7528 249° West 442 509 40,000  Level FlightAware Transoceanic
Fri 12:41:00 AM 38.5202 154.6101 249° West 442 509 40,000  Level FlightAware Transoceanic
Fri 12:42:00 AM 38.4768 154.4677 249° West 442 509 40,000  Level FlightAware Transoceanic
Fri 12:43:00 AM 38.4332 154.3253 249° West 442 509 40,000  Level FlightAware Transoceanic
Fri 12:44:00 AM 38.3895 154.1832 249° West 442 509 40,000  Level FlightAware Transoceanic
Fri 12:45:00 AM 38.3456 154.0413 248° West 442 509 40,000  Level FlightAware Transoceanic
Fri 12:46:00 AM 38.3015 153.8995 248° West 442 509 40,000  Level FlightAware Transoceanic
Fri 12:47:00 AM 38.2573 153.7579 248° West 442 509 40,000  Level FlightAware Transoceanic
Fri 12:48:00 AM 38.2129 153.6164 248° West 442 509 40,000  Level FlightAware Transoceanic
Fri 12:49:00 AM 38.1683 153.4751 248° West 442 509 40,000  Level FlightAware Transoceanic
Fri 12:50:00 AM 38.1235 153.3340 248° West 442 509 40,000  Level FlightAware Transoceanic
Fri 12:51:00 AM 38.0786 153.1931 248° West 442 509 40,000  Level FlightAware Transoceanic
Fri 12:52:00 AM 38.0335 153.0524 248° West 442 509 40,000  Level FlightAware Transoceanic
Fri 12:53:00 AM 37.9883 152.9118 248° West 442 509 40,000  Level FlightAware Transoceanic
Fri 12:54:00 AM 37.9428 152.7714 248° West 442 509 40,000  Level FlightAware Transoceanic
Fri 12:55:00 AM 37.8972 152.6312 248° West 442 509 40,000  Level FlightAware Transoceanic
Fri 12:56:00 AM 37.8515 152.4911 247° West 442 509 40,000  Level FlightAware Transoceanic
Fri 12:57:00 AM 37.8056 152.3512 247° West 442 509 40,000  Level FlightAware Transoceanic
Fri 12:58:00 AM 37.7595 152.2115 247° West 442 509 40,000  Level FlightAware Transoceanic
Fri 12:59:00 AM 37.7132 152.0720 247° West 442 509 40,000  Level FlightAware Transoceanic
Fri 01:00:00 AM 37.6668 151.9326 247° West 442 509 40,000  Level FlightAware Transoceanic
Fri 01:01:00 AM 37.6202 151.7935 247° West 442 509 40,000  Level FlightAware Transoceanic
Fri 01:02:00 AM 37.5735 151.6544 247° West 442 509 40,000  Level FlightAware Transoceanic
Fri 01:03:00 AM 37.5266 151.5156 247° West 442 509 40,000  Level FlightAware Transoceanic
Fri 01:04:00 AM 37.4795 151.3770 247° West 442 509 40,000  Level FlightAware Transoceanic
Fri 01:05:00 AM 37.4323 151.2385 247° West 442 509 40,000  Level FlightAware Transoceanic
Fri 01:06:00 AM 37.3849 151.1002 247° West 442 509 40,000  Level FlightAware Transoceanic
Fri 01:07:00 AM 37.3373 150.9620 247° West 442 509 40,000  Level FlightAware Transoceanic
Fri 01:08:00 AM 37.2896 150.8241 246° West 442 509 40,000  Level FlightAware Transoceanic
Fri 01:09:00 AM 37.2417 150.6863 246° West 442 509 40,000  Level FlightAware Transoceanic
Fri 01:10:00 AM 37.1937 150.5487 246° West 442 509 40,000  Level FlightAware Transoceanic
Fri 01:11:00 AM 37.1455 150.4113 246° West 442 509 40,000  Level FlightAware Transoceanic
Fri 01:12:00 AM 37.0972 150.2740 246° West 442 509 40,000  Level FlightAware Transoceanic
Fri 01:13:00 AM 37.0487 150.1369 246° West 442 509 40,000  Level FlightAware Transoceanic
Fri 01:14:00 AM 36.9967 149.9906 246° West  Level FlightAware Approximate
Fri 01:15:00 AM 36.9986 149.9795 265° West  Level FlightAware Approximate
Fri 01:16:00 AM 36.9873 149.8201 265° West  Level FlightAware Approximate
Fri 01:17:00 AM 36.9759 149.6606 265° West  Level FlightAware Approximate
Fri 01:18:00 AM 36.9642 149.5013 265° West  Level FlightAware Approximate
Fri 01:19:00 AM 36.9524 149.3420 265° West  Level FlightAware Approximate
Fri 01:20:00 AM 36.9403 149.1827 265° West  Level FlightAware Approximate
Fri 01:21:00 AM 36.9280 149.0235 265° West  Level FlightAware Approximate
Fri 01:22:00 AM 36.9155 148.8643 264° West  Level FlightAware Approximate
Fri 01:23:00 AM 36.9028 148.7052 264° West  Level FlightAware Approximate
Fri 01:24:00 AM 36.8899 148.5462 264° West  Level FlightAware Approximate
Fri 01:25:00 AM 36.8670 148.3894 255° West  Level FlightAware Approximate
Fri 01:26:00 AM 36.8342 148.2350 255° West  Level FlightAware Approximate
Fri 01:27:00 AM 36.8012 148.0807 255° West  Level FlightAware Approximate
Fri 01:28:00 AM 36.7680 147.9265 255° West  Level FlightAware Approximate
Fri 01:29:00 AM 36.7346 147.7725 255° West  Level FlightAware Approximate
Fri 01:30:00 AM 36.7010 147.6186 255° West  Level FlightAware Approximate
Fri 01:31:00 AM 36.6673 147.4648 255° West  Level FlightAware Approximate
Fri 01:32:00 AM 36.6333 147.3112 255° West  Level FlightAware Approximate
Fri 01:33:00 AM 36.5991 147.1577 255° West  Level FlightAware Approximate
Fri 01:34:00 AM 36.5647 147.0043 254° West  Level FlightAware Approximate
Fri 01:34:01 AM 36.4250 146.8520 248° West 448 516 40,000  Level FlightAware ADS-B
Fri 01:35:00 AM 36.5301 146.8511 254° West  Level FlightAware Approximate
Fri 01:36:00 AM 36.4955 146.6987 254° West  Level FlightAware Approximate
Fri 01:37:00 AM 36.4607 146.5464 254° West  Level FlightAware Approximate
Fri 01:38:00 AM 36.4257 146.3943 254° West  Level FlightAware Approximate
Fri 01:39:00 AM 36.3873 146.2437 248° West  Level FlightAware Approximate
Fri 01:40:00 AM 36.3400 146.0969 248° West  Level FlightAware Approximate
Fri 01:41:00 AM 36.2925 145.9503 248° West  Level FlightAware Approximate
Fri 01:41:56 AM 36.1840 145.6650 256° West 454 522 40,000  Level FlightAware ADS-B
Fri 01:42:00 AM 36.2449 145.8039 248° West  Level FlightAware Approximate
Fri 01:42:36 AM 36.1620 145.5620 255° West 454 522 40,000  Level FlightAware ADS-B
Fri 01:43:16 AM 36.1450 145.4760 256° West 454 522 40,000  Level FlightAware ADS-B
Fri 01:43:52 AM 36.1290 145.3990 256° West 454 522 40,000  Level FlightAware ADS-B
Fri 01:44:28 AM 36.1140 145.3210 257° West 454 522 40,000  Level FlightAware ADS-B
Fri 01:45:16 AM 36.0970 145.1650 262° West 456 525 40,000  Level FlightAware ADS-B
Fri 01:45:48 AM 36.0830 145.0720 259° West 454 522 40,000  Level FlightAware ADS-B
Fri 01:46:23 AM 36.0700 144.9860 259° West 452 520 40,000  Level FlightAware ADS-B
Fri 01:46:58 AM 36.0560 144.8940 259° West 438 504 40,000  Level FlightAware ADS-B
Fri 01:47:33 AM 36.0430 144.8100 259° West 432 497 40,000  Level FlightAware ADS-B
Fri 01:48:03 AM 36.0310 144.7360 259° West 431 496 40,000  Level FlightAware ADS-B
Fri 01:48:48 AM 36.0140 144.6260 259° West 436 502 40,000  Level FlightAware ADS-B
Fri 01:49:39 AM 35.9960 144.5190 258° West 438 504 40,000  Level FlightAware ADS-B
Fri 01:50:35 AM 35.9760 144.3820 260° West 437 503 40,000  Level FlightAware ADS-B
Fri 01:51:11 AM 35.9640 144.3070 259° West 437 503 40,000  Level FlightAware ADS-B
Fri 01:51:47 AM 35.9520 144.2320 259° West 437 503 40,000  Level FlightAware ADS-B
Fri 01:52:23 AM 35.9400 144.1570 259° West 437 503 40,000  Level FlightAware ADS-B
Fri 01:52:59 AM 35.9280 144.0820 259° West 437 503 40,000 -4,029 Level FlightAware ADS-B
Fri 01:53:33 AM 35.9030 143.9280 259° West 446 513 35,300 -4,622 Descending FlightAware ADS-B
Fri 01:54:13 AM 35.8860 143.8290 258° West 449 517 34,300 -1,520 Descending FlightAware ADS-B
Fri 01:54:48 AM 35.8690 143.7450 256° West 453 521 33,400 -846 Descending FlightAware ADS-B
Fri 01:55:31 AM 35.8480 143.6490 255° West 454 522 33,200 -152 Descending FlightAware ADS-B
Fri 01:56:07 AM 35.8310 143.5730 255° West 454 522 33,200  Level FlightAware ADS-B
Fri 01:56:45 AM 35.8140 143.4920 256° West 454 522 33,200 -1,014 Level FlightAware ADS-B
Fri 01:57:18 AM 35.7920 143.3680 258° West 460 529 32,000 -1,059 Descending FlightAware ADS-B
Fri 01:57:53 AM 35.7730 143.2760 256° West 461 531 32,000 -80 Level FlightAware ADS-B
Fri 01:58:33 AM 35.7530 143.1770 256° West 457 526 31,900 -800 Descending FlightAware ADS-B
Fri 01:59:08 AM 35.7360 143.0900 256° West 457 526 31,000 -730 Descending FlightAware ADS-B
Fri 01:59:47 AM 35.7170 143.0070 254° West 457 526 31,000 -1,200 Level FlightAware ADS-B
Fri 02:00:23 AM 35.7010 142.9200 257° West 442 509 29,500 -1,250 Descending FlightAware ADS-B
Fri 02:00:59 AM 35.6860 142.8450 256° West 442 509 29,500  Level FlightAware ADS-B
Fri 02:01:35 AM 35.6700 142.7700 255° West 442 509 29,500 -3,190 Level FlightAware ADS-B
Fri 02:02:18 AM 35.6430 142.6460 255° West 562 647 25,300 -3,398 Descending FlightAware ADS-B
Fri 02:02:58 AM 35.6260 142.5560 257° West 382 440 24,800 -640 Descending FlightAware ADS-B
Fri 02:03:33 AM 35.6190 142.4810 263° West 372 428 24,500 -417 Descending FlightAware ADS-B
Fri 02:04:10 AM 35.6300 142.4140 281° West 366 421 24,300 -393 Descending FlightAware ADS-B
Fri 02:04:34 AM 35.6550 142.3690 304° West 365 420 24,100 -305 Descending FlightAware ADS-B
Fri 02:05:09 AM 35.6960 142.3360 327° Northwest 354 407 24,000 -128 Descending FlightAware ADS-B
Fri 02:05:21 AM 35.7210 142.3290 347° North 348 400 24,000  Level FlightAware ADS-B
Fri 02:05:58 AM 35.7810 142.3150 349° North 312 359 24,000  Level FlightAware ADS-B
Fri 02:06:28 AM 35.8230 142.3030 347° North 308 354 24,000  Level FlightAware ADS-B
Fri 02:06:38 AM 35.8340 142.2950 329° Northwest 300 345 24,000  Level FlightAware ADS-B
Fri 02:06:48 AM 35.8440 142.2820 314° West 294 338 24,000 -136 Level FlightAware ADS-B
Fri 02:07:22 AM 35.8580 142.2340 290° West 292 336 23,900 -414 Descending FlightAware ADS-B
Fri 02:08:15 AM 35.8750 142.1550 285° West 301 346 23,400 -341 Descending FlightAware ADS-B
Fri 02:08:50 AM 35.8860 142.1060 286° West 301 346 23,400  Level FlightAware ADS-B
Fri 02:09:30 AM 35.8980 142.0490 285° West 301 346 23,400  Level FlightAware ADS-B
Fri 02:10:05 AM 35.9090 142.0000 286° West 301 346 23,400  Level FlightAware ADS-B
Fri 02:10:49 AM 35.9220 141.9380 285° West 301 346 23,400  Level FlightAware ADS-B
Fri 02:11:25 AM 35.9330 141.8870 285° West 301 346 23,400 -2,036 Level FlightAware ADS-B
Fri 02:11:45 AM 35.7640 141.8320 195° South 286 329 21,500 -2,600 Descending FlightAware ADS-B
Fri 02:12:25 AM 35.7340 141.7790 235° Southwest 284 327 20,800 -1,040 Descending FlightAware ADS-B
Fri 02:13:00 AM 35.7070 141.7330 234° Southwest 288 331 20,200 -1,130 Descending FlightAware ADS-B
Fri 02:13:34 AM 35.6790 141.6850 234° Southwest 284 327 19,500 -1,114 Descending FlightAware ADS-B
Fri 02:14:10 AM 35.6530 141.6390 235° Southwest 279 321 18,900 -1,014 Descending FlightAware ADS-B
Fri 02:14:45 AM 35.6270 141.5940 235° Southwest 277 319 18,300 -1,014 Descending FlightAware ADS-B
Fri 02:15:21 AM 35.6000 141.5480 234° Southwest 276 318 17,700 -1,015 Descending FlightAware ADS-B
Fri 02:15:50 AM 35.5810 141.5090 239° Southwest 268 308 17,200 -1,000 Descending FlightAware ADS-B
Fri 02:16:09 AM 35.5780 141.4790 263° West 270 311 16,900 -1,034 Descending FlightAware ADS-B
Fri 02:16:19 AM 35.5810 141.4630 283° West 273 314 16,700 -1,080 Descending FlightAware ADS-B
Fri 02:16:59 AM 35.6040 141.4110 299° West 275 316 16,000 -1,014 Descending FlightAware ADS-B
Fri 02:17:30 AM 35.6210 141.3730 299° West 274 315 15,500 -1,014 Descending FlightAware ADS-B
Fri 02:18:10 AM 35.6460 141.3190 300° West 272 313 14,800 -1,050 Descending FlightAware ADS-B
Fri 02:18:50 AM 35.6710 141.2630 299° West 269 310 14,100 -975 Descending FlightAware ADS-B
Fri 02:19:30 AM 35.6950 141.2100 299° West 264 304 13,500 -973 Descending FlightAware ADS-B
Fri 02:20:04 AM 35.7150 141.1650 299° West 260 299 12,900 -1,043 Descending FlightAware ADS-B
Fri 02:20:39 AM 35.7360 141.1180 299° West 258 297 12,300 -1,029 Descending FlightAware ADS-B
Fri 02:21:14 AM 35.7580 141.0690 299° West 255 293 11,700 -930 Descending FlightAware ADS-B
Fri 02:21:50 AM 35.7760 141.0290 299° West 255 293 11,200 -1,026 Descending FlightAware ADS-B
Fri 02:22:30 AM 35.8010 140.9730 299° West 258 297 10,400 -1,108 Descending FlightAware ADS-B
Fri 02:22:55 AM 35.8160 140.9400 299° West 258 297 10,000 -933 Descending FlightAware ADS-B
Fri 02:23:15 AM 35.8250 140.9180 297° West 259 298 9,700 -1,029 Descending FlightAware ADS-B
Fri 02:23:30 AM 35.8300 140.8930 284° West 256 295 9,400 -923 Descending FlightAware ADS-B
Fri 02:23:54 AM 35.8220 140.8650 251° West 246 283 9,100 -1,059 Descending FlightAware ADS-B
Fri 02:24:04 AM 35.8110 140.8500 228° Southwest 243 280 8,800 -1,200 Descending FlightAware ADS-B
Fri 02:24:14 AM 35.8000 140.8430 207° Southwest 244 281 8,700 -600 Descending FlightAware ADS-B
Fri 02:24:34 AM 35.7810 140.8350 199° South 237 273 8,500 -600 Descending FlightAware ADS-B
Fri 02:24:44 AM 35.7720 140.8310 200° South 244 281 8,400 -581 Descending FlightAware ADS-B
Fri 02:25:05 AM 35.7480 140.8210 199° South 236 272 8,200 -750 Descending FlightAware ADS-B
Fri 02:25:24 AM 35.7280 140.8120 200° South 225 259 7,900 -1,077 Descending FlightAware ADS-B
Fri 02:25:44 AM 35.7080 140.8030 200° South 223 257 7,500 -1,000 Descending FlightAware ADS-B
Fri 02:25:54 AM 35.6970 140.7980 200° South 221 254 7,400 -800 Descending FlightAware ADS-B
Fri 02:26:14 AM 35.6770 140.7900 198° South 225 259 7,100 -923 Descending FlightAware ADS-B
Fri 02:26:33 AM 35.6580 140.7810 201° Southwest 222 255 6,800 -1,000 Descending FlightAware ADS-B
Fri 02:26:50 AM 35.6420 140.7750 197° South 220 253 6,500 -789 Descending FlightAware ADS-B
Fri 02:27:11 AM 35.6240 140.7670 200° South 209 241 6,300 -600 Descending FlightAware ADS-B
Fri 02:27:30 AM 35.6170 140.7640 199° South 207 238 6,100 -909 Descending FlightAware ADS-B
Fri 02:27:44 AM 35.5980 140.7560 199° South 203 234 5,800 -1,021 Descending FlightAware ADS-B
Fri 02:28:17 AM 35.5620 140.7400 200° South 201 231 5,300 -977 Descending FlightAware ADS-B
Fri 02:28:27 AM 35.5530 140.7360 200° South 199 229 5,100 -857 Descending FlightAware ADS-B
Fri 02:28:59 AM 35.5240 140.7240 199° South 191 220 4,700 -792 Descending FlightAware ADS-B
Fri 02:29:20 AM 35.5080 140.7170 200° South 191 220 4,400 -857 Descending FlightAware ADS-B
Fri 02:29:34 AM 35.4960 140.7100 205° Southwest 188 216 4,200 -414 Descending FlightAware ADS-B
Fri 02:29:49 AM 35.4850 140.6990 219° Southwest 194 223 4,200  Level FlightAware ADS-B
Fri 02:29:59 AM 35.4820 140.6930 238° Southwest 189 217 4,200  Level FlightAware ADS-B
Fri 02:30:27 AM 35.4650 140.6660 232° Southwest 189 217 4,200  Level FlightAware ADS-B
Fri 02:30:39 AM 35.4630 140.6540 258° West 181 208 4,200  Level FlightAware ADS-B
Fri 02:30:41 AM 35.4630 140.6510 270° West 175 201 4,200  Level FlightAware ADS-B
Fri 02:31:07 AM 35.4700 140.6270 290° West 176 203 4,200  Level FlightAware ADS-B
Fri 02:31:27 AM 35.4780 140.6100 300° West 176 203 4,200  Level FlightAware ADS-B
Fri 02:31:47 AM 35.4860 140.5920 299° West 176 203 4,200  Level FlightAware ADS-B
Fri 02:32:04 AM 35.4930 140.5780 302° West 177 204 4,200  Level FlightAware ADS-B
Fri 02:32:16 AM 35.4990 140.5680 306° West 176 203 4,200  Level FlightAware ADS-B
Fri 02:32:24 AM 35.5040 140.5630 321° Northwest 177 204 4,200  Level FlightAware ADS-B
Fri 02:32:43 AM 35.5170 140.5530 328° Northwest 181 208 4,200  Level FlightAware ADS-B
Fri 02:33:00 AM 35.5300 140.5440 331° Northwest 184 212 4,200  Level FlightAware ADS-B
Fri 02:33:18 AM 35.5430 140.5350 331° Northwest 184 212 4,200  Level FlightAware ADS-B
Fri 02:33:31 AM 35.5530 140.5280 330° Northwest 184 212 4,200 -162 Level FlightAware ADS-B
Fri 02:33:55 AM 35.5700 140.5150 328° Northwest 185 213 4,100 -682 Descending FlightAware ADS-B
Fri 02:34:15 AM 35.5860 140.5040 331° Northwest 187 215 3,700 -1,091 Descending FlightAware ADS-B
Fri 02:34:28 AM 35.5950 140.4970 328° Northwest 187 215 3,500 -973 Descending FlightAware ADS-B
Fri 02:34:52 AM 35.6130 140.4850 332° Northwest 179 206 3,100 -977 Descending FlightAware ADS-B
Fri 02:35:11 AM 35.6270 140.4750 330° Northwest 174 200 2,800 -833 Descending FlightAware ADS-B
Fri 02:35:28 AM 35.6380 140.4670 329° Northwest 173 199 2,600 -833 Descending FlightAware ADS-B
Fri 02:35:47 AM 35.6510 140.4570 328° Northwest 174 200 2,300 -923 Descending FlightAware ADS-B
Fri 02:36:07 AM 35.6660 140.4470 332° Northwest 173 199 2,000 -900 Descending FlightAware ADS-B
Fri 02:36:27 AM 35.6790 140.4370 328° Northwest 160 184 1,700 -833 Descending FlightAware ADS-B
Fri 02:36:43 AM 35.6890 140.4300 330° Northwest 153 176 1,500 -667 Descending FlightAware ADS-B
Fri 02:37:03 AM 35.7000 140.4220 329° Northwest 155 178 1,300 -714 Descending FlightAware ADS-B
Fri 02:37:25 AM 35.7140 140.4120 330° Northwest 154 177 1,000 -882 Descending FlightAware ADS-B
Fri 02:37:37 AM 35.7210 140.4070 330° Northwest 154 177 800 -857 Descending FlightAware ADS-B
Fri 02:38:00 AM 35.7360 140.3960 329° Northwest 150 173 500 -316 Descending FlightAware ADS-B
Fri 02:38:34 AM 35.7540 140.3830 330° Northwest 148 170 500  Level FlightAware ADS-B

Login

Don't have an account? Register now (free) for customized features, flight alerts, and more!